Observation data for Boys Ranch on 07/11/2018      Previous  Date  Next       Current Mesonet Observations  Soil Data  Daily Summary Page  Observations in Plain Language
KBY1 110500Z 17005KT 26/14 A3013 RMK A01 T02570135  RH  047%=      5-min Rain = 0
KBY1 110501Z 19005KT 26/14 A3013 RMK A01 T02570135  RH  047%=      5-min Rain = 0
KBY1 110502Z 18005KT 26/14 A3013 RMK A01 T02570135  RH  047%=      5-min Rain = 0
KBY1 110503Z 18004KT 26/14 A3013 RMK A01 T02560135  RH  047%=      5-min Rain = 0
KBY1 110504Z 18004KT 26/14 A3013 RMK A01 T02560136  RH  047%=      5-min Rain = 0
KBY1 110505Z 18004KT 26/14 A3013 RMK A01 T02550136  RH  048%=      5-min Rain = 0
KBY1 110506Z 17003KT 26/14 A3013 RMK A01 T02550136  RH  048%=      5-min Rain = 0
KBY1 110507Z 17003KT 25/14 A3013 RMK A01 T02540135  RH  048%=      5-min Rain = 0
KBY1 110508Z 17004KT 25/14 A3013 RMK A01 T02540136  RH  048%=      5-min Rain = 0
KBY1 110509Z 16005KT 25/14 A3013 RMK A01 T02540137  RH  048%=      5-min Rain = 0
KBY1 110510Z 16005KT 25/14 A3013 RMK A01 T02540138  RH  049%=      5-min Rain = 0
KBY1 110511Z 17004KT 25/14 A3013 RMK A01 T02540139  RH  049%=      5-min Rain = 0
KBY1 110512Z 18005KT 25/14 A3013 RMK A01 T02540139  RH  049%=      5-min Rain = 0
KBY1 110513Z 15004KT 25/14 A3013 RMK A01 T02540140  RH  049%=      5-min Rain = 0
KBY1 110514Z 17005KT 26/14 A3013 RMK A01 T02550141  RH  049%=      5-min Rain = 0
KBY1 110515Z 16003KT 26/14 A3013 RMK A01 T02550142  RH  050%=      5-min Rain = 0
KBY1 110516Z 15003KT 26/14 A3013 RMK A01 T02550142  RH  050%=      5-min Rain = 0
KBY1 110517Z 14003KT 26/14 A3013 RMK A01 T02550143  RH  050%=      5-min Rain = 0
KBY1 110518Z 15004KT 25/14 A3013 RMK A01 T02540144  RH  051%=      5-min Rain = 0
KBY1 110519Z 14004KT 25/15 A3013 RMK A01 T02530145  RH  051%=      5-min Rain = 0
KBY1 110520Z 14004KT 25/15 A3013 RMK A01 T02530145  RH  051%=      5-min Rain = 0
KBY1 110521Z 14003KT 25/15 A3013 RMK A01 T02530145  RH  051%=      5-min Rain = 0
KBY1 110522Z 14004KT 25/15 A3013 RMK A01 T02530145  RH  051%=      5-min Rain = 0
KBY1 110523Z 13003KT 25/15 A3013 RMK A01 T02530146  RH  051%=      5-min Rain = 0
KBY1 110524Z 13002KT 25/15 A3013 RMK A01 T02530146  RH  051%=      5-min Rain = 0
KBY1 110525Z 12002KT 25/15 A3013 RMK A01 T02520146  RH  052%=      5-min Rain = 0
KBY1 110526Z 15001KT 25/15 A3013 RMK A01 T02520146  RH  052%=      5-min Rain = 0
KBY1 110527Z 10001KT 25/15 A3013 RMK A01 T02510146  RH  052%=      5-min Rain = 0
KBY1 110528Z 13001KT 25/15 A3013 RMK A01 T02510146  RH  052%=      5-min Rain = 0
KBY1 110529Z 06002KT 25/15 A3013 RMK A01 T02510147  RH  052%=      5-min Rain = 0
KBY1 110530Z 03003KT 25/15 A3013 RMK A01 T02490150  RH  054%=      5-min Rain = 0
KBY1 110531Z 03003KT 25/16 A3013 RMK A01 T02470155  RH  057%=      5-min Rain = 0
KBY1 110532Z 04004KT 24/16 A3013 RMK A01 T02430158  RH  059%=      5-min Rain = 0
KBY1 110533Z 04004KT 24/16 A3013 RMK A01 T02410160  RH  061%=      5-min Rain = 0
KBY1 110534Z 05004KT 24/16 A3013 RMK A01 T02390161  RH  062%=      5-min Rain = 0
KBY1 110535Z 05003KT 24/16 A3013 RMK A01 T02380162  RH  062%=      5-min Rain = 0
KBY1 110536Z 05004KT 24/16 A3013 RMK A01 T02370162  RH  063%=      5-min Rain = 0
KBY1 110537Z 04004KT 24/16 A3013 RMK A01 T02360164  RH  064%=      5-min Rain = 0
KBY1 110538Z 05003KT 24/16 A3013 RMK A01 T02350164  RH  065%=      5-min Rain = 0
KBY1 110539Z 06004KT 23/17 A3013 RMK A01 T02340166  RH  065%=      5-min Rain = 0
KBY1 110540Z 06005KT 23/17 A3013 RMK A01 T02330166  RH  066%=      5-min Rain = 0
KBY1 110541Z 07005KT 23/17 A3013 RMK A01 T02320166  RH  066%=      5-min Rain = 0
KBY1 110542Z 06007KT 23/17 A3013 RMK A01 T02310166  RH  067%=      5-min Rain = 0
KBY1 110543Z 06007KT 23/17 A3013 RMK A01 T02310165  RH  066%=      5-min Rain = 0
KBY1 110544Z 06007KT 23/17 A3013 RMK A01 T02310165  RH  066%=      5-min Rain = 0
KBY1 110545Z 06007KT 23/17 A3013 RMK A01 T02330165  RH  066%=      5-min Rain = 0
KBY1 110546Z 06007KT 23/17 A3013 RMK A01 T02340165  RH  065%=      5-min Rain = 0
KBY1 110547Z 06007KT 23/17 A3013 RMK A01 T02340165  RH  065%=      5-min Rain = 0
KBY1 110548Z 06006KT 23/16 A3013 RMK A01 T02340164  RH  065%=      5-min Rain = 0
KBY1 110549Z 07006KT 24/16 A3014 RMK A01 T02350164  RH  064%=      5-min Rain = 0
KBY1 110550Z 07006KT 24/16 A3014 RMK A01 T02350164  RH  064%=      5-min Rain = 0
KBY1 110551Z 07007KT 24/16 A3014 RMK A01 T02350164  RH  064%=      5-min Rain = 0
KBY1 110552Z 07007KT 24/16 A3014 RMK A01 T02350164  RH  064%=      5-min Rain = 0
KBY1 110553Z 07007KT 24/16 A3014 RMK A01 T02350163  RH  064%=      5-min Rain = 0
KBY1 110554Z 08008KT 24/16 A3014 RMK A01 T02350163  RH  064%=      5-min Rain = 0
KBY1 110555Z 07007KT 24/16 A3014 RMK A01 T02350163  RH  064%=      5-min Rain = 0
KBY1 110556Z 08007KT 24/16 A3014 RMK A01 T02350163  RH  064%=      5-min Rain = 0
KBY1 110557Z 08007KT 24/16 A3014 RMK A01 T02350163  RH  064%=      5-min Rain = 0
KBY1 110558Z 08006KT 24/16 A3014 RMK A01 T02350163  RH  064%=      5-min Rain = 0
KBY1 110559Z 09007KT 23/16 A3014 RMK A01 T02340163  RH  064%=      5-min Rain = 0
KBY1 110600Z 08006KT 23/16 A3014 RMK A01 T02340163  RH  064%=      5-min Rain = 0
KBY1 110601Z 08006KT 23/16 A3014 RMK A01 T02340163  RH  065%=      5-min Rain = 0
KBY1 110602Z 08007KT 23/16 A3014 RMK A01 T02340163  RH  065%=      5-min Rain = 0
KBY1 110603Z 08007KT 23/16 A3014 RMK A01 T02330163  RH  064%=      5-min Rain = 0
KBY1 110604Z 08007KT 23/16 A3014 RMK A01 T02330163  RH  065%=      5-min Rain = 0
KBY1 110605Z 09007KT 23/16 A3014 RMK A01 T02330163  RH  065%=      5-min Rain = 0
KBY1 110606Z 08006KT 23/16 A3014 RMK A01 T02330163  RH  065%=      5-min Rain = 0
KBY1 110607Z 08006KT 23/16 A3014 RMK A01 T02330163  RH  065%=      5-min Rain = 0
KBY1 110608Z 08006KT 23/16 A3014 RMK A01 T02330163  RH  065%=      5-min Rain = 0
KBY1 110609Z 09006KT 23/16 A3014 RMK A01 T02320162  RH  065%=      5-min Rain = 0
KBY1 110610Z 09006KT 23/16 A3014 RMK A01 T02320162  RH  065%=      5-min Rain = 0
KBY1 110611Z 09005KT 23/16 A3014 RMK A01 T02320162  RH  064%=      5-min Rain = 0
KBY1 110612Z 09006KT 23/16 A3014 RMK A01 T02320162  RH  064%=      5-min Rain = 0
KBY1 110613Z 09005KT 23/16 A3014 RMK A01 T02330162  RH  064%=      5-min Rain = 0
KBY1 110614Z 09005KT 23/16 A3014 RMK A01 T02330162  RH  064%=      5-min Rain = 0
KBY1 110615Z 10006KT 23/16 A3014 RMK A01 T02330162  RH  064%=      5-min Rain = 0
KBY1 110616Z 09006KT 23/16 A3014 RMK A01 T02330162  RH  064%=      5-min Rain = 0
KBY1 110617Z 09006KT 23/16 A3014 RMK A01 T02330162  RH  064%=      5-min Rain = 0
KBY1 110618Z 09006KT 23/16 A3014 RMK A01 T02330161  RH  064%=      5-min Rain = 0
KBY1 110619Z 09005KT 23/16 A3014 RMK A01 T02330162  RH  064%=      5-min Rain = 0
KBY1 110620Z 09006KT 23/16 A3014 RMK A01 T02330162  RH  064%=      5-min Rain = 0
KBY1 110621Z 09006KT 23/16 A3014 RMK A01 T02320162  RH  064%=      5-min Rain = 0
KBY1 110622Z 09006KT 23/16 A3014 RMK A01 T02320162  RH  065%=      5-min Rain = 0
KBY1 110623Z 09006KT 23/16 A3014 RMK A01 T02320162  RH  065%=      5-min Rain = 0
KBY1 110624Z 09006KT 23/16 A3014 RMK A01 T02310162  RH  065%=      5-min Rain = 0
KBY1 110625Z 09007KT 23/16 A3014 RMK A01 T02310162  RH  065%=      5-min Rain = 0
KBY1 110626Z 09006KT 23/16 A3014 RMK A01 T02310162  RH  065%=      5-min Rain = 0
KBY1 110627Z 09006KT 23/16 A3014 RMK A01 T02310162  RH  065%=      5-min Rain = 0
KBY1 110628Z 09007KT 23/16 A3014 RMK A01 T02310162  RH  065%=      5-min Rain = 0
KBY1 110629Z 08007KT 23/16 A3014 RMK A01 T02310162  RH  065%=      5-min Rain = 0
KBY1 110630Z 09007KT 23/16 A3014 RMK A01 T02310162  RH  065%=      5-min Rain = 0
KBY1 110631Z 09007KT 23/16 A3014 RMK A01 T02310162  RH  065%=      5-min Rain = 0
KBY1 110632Z 09006KT 23/16 A3014 RMK A01 T02310162  RH  065%=      5-min Rain = 0
KBY1 110633Z 09006KT 23/16 A3014 RMK A01 T02310162  RH  065%=      5-min Rain = 0
KBY1 110634Z 09007KT 23/16 A3014 RMK A01 T02310162  RH  065%=      5-min Rain = 0
KBY1 110635Z 09007KT 23/16 A3014 RMK A01 T02310162  RH  065%=      5-min Rain = 0
KBY1 110636Z 09007KT 23/16 A3014 RMK A01 T02310162  RH  065%=      5-min Rain = 0
KBY1 110637Z 09007KT 23/16 A3014 RMK A01 T02310161  RH  065%=      5-min Rain = 0
KBY1 110638Z 09007KT 23/16 A3014 RMK A01 T02320161  RH  065%=      5-min Rain = 0
KBY1 110639Z 09006KT 23/16 A3014 RMK A01 T02320161  RH  064%=      5-min Rain = 0
KBY1 110640Z 09006KT 23/16 A3014 RMK A01 T02320161  RH  064%=      5-min Rain = 0
KBY1 110641Z 09005KT 23/16 A3014 RMK A01 T02320161  RH  064%=      5-min Rain = 0
KBY1 110642Z 09005KT 23/16 A3014 RMK A01 T02320162  RH  064%=      5-min Rain = 0
KBY1 110643Z 09005KT 23/16 A3014 RMK A01 T02320162  RH  065%=      5-min Rain = 0
KBY1 110644Z 09005KT 23/16 A3014 RMK A01 T02310162  RH  065%=      5-min Rain = 0
KBY1 110645Z 09005KT 23/16 A3014 RMK A01 T02310162  RH  065%=      5-min Rain = 0
KBY1 110646Z 09004KT 23/16 A3014 RMK A01 T02310162  RH  065%=      5-min Rain = 0
KBY1 110647Z 10004KT 23/16 A3014 RMK A01 T02310162  RH  065%=      5-min Rain = 0
KBY1 110648Z 10005KT 23/16 A3014 RMK A01 T02310162  RH  065%=      5-min Rain = 0
KBY1 110649Z 10005KT 23/16 A3014 RMK A01 T02300162  RH  065%=      5-min Rain = 0
KBY1 110650Z 10005KT 23/16 A3014 RMK A01 T02300162  RH  065%=      5-min Rain = 0
KBY1 110651Z 10004KT 23/16 A3014 RMK A01 T02300161  RH  065%=      5-min Rain = 0
KBY1 110652Z 09003KT 23/16 A3014 RMK A01 T02290162  RH  066%=      5-min Rain = 0
KBY1 110653Z 09004KT 23/16 A3014 RMK A01 T02290162  RH  066%=      5-min Rain = 0
KBY1 110654Z 09004KT 23/16 A3014 RMK A01 T02280162  RH  066%=      5-min Rain = 0
KBY1 110655Z 09004KT 23/16 A3014 RMK A01 T02280162  RH  066%=      5-min Rain = 0
KBY1 110656Z 08003KT 23/16 A3014 RMK A01 T02270162  RH  066%=      5-min Rain = 0
KBY1 110657Z 08004KT 23/16 A3014 RMK A01 T02270162  RH  067%=      5-min Rain = 0
KBY1 110658Z 07004KT 23/16 A3014 RMK A01 T02270162  RH  067%=      5-min Rain = 0
KBY1 110659Z 07004KT 23/16 A3014 RMK A01 T02260161  RH  067%=      5-min Rain = 0
KBY1 110700Z 07004KT 23/16 A3014 RMK A01 T02270161  RH  066%=      5-min Rain = 0
KBY1 110701Z 07004KT 23/16 A3014 RMK A01 T02280161  RH  066%=      5-min Rain = 0
KBY1 110702Z 07004KT 23/16 A3014 RMK A01 T02280161  RH  066%=      5-min Rain = 0
KBY1 110703Z 07003KT 23/16 A3014 RMK A01 T02280161  RH  066%=      5-min Rain = 0
KBY1 110704Z 06004KT 23/16 A3014 RMK A01 T02280161  RH  066%=      5-min Rain = 0
KBY1 110705Z 07003KT 23/16 A3014 RMK A01 T02280161  RH  066%=      5-min Rain = 0
KBY1 110706Z 07004KT 23/16 A3014 RMK A01 T02290161  RH  066%=      5-min Rain = 0
KBY1 110707Z 07004KT 23/16 A3014 RMK A01 T02290161  RH  066%=      5-min Rain = 0
KBY1 110708Z 06004KT 23/16 A3014 RMK A01 T02280162  RH  066%=      5-min Rain = 0
KBY1 110709Z 04003KT 23/16 A3014 RMK A01 T02280162  RH  066%=      5-min Rain = 0
KBY1 110710Z 05003KT 23/16 A3014 RMK A01 T02280162  RH  066%=      5-min Rain = 0
KBY1 110711Z 05004KT 23/16 A3014 RMK A01 T02280162  RH  067%=      5-min Rain = 0
KBY1 110712Z 04003KT 23/16 A3014 RMK A01 T02270163  RH  067%=      5-min Rain = 0
KBY1 110713Z 04004KT 23/16 A3014 RMK A01 T02270164  RH  067%=      5-min Rain = 0
KBY1 110714Z 04003KT 23/16 A3014 RMK A01 T02260164  RH  068%=      5-min Rain = 0
KBY1 110715Z 04004KT 23/17 A3014 RMK A01 T02270165  RH  068%=      5-min Rain = 0
KBY1 110716Z 04003KT 23/16 A3014 RMK A01 T02260164  RH  068%=      5-min Rain = 0
KBY1 110717Z 03003KT 23/16 A3014 RMK A01 T02260164  RH  068%=      5-min Rain = 0
KBY1 110718Z 04004KT 23/16 A3014 RMK A01 T02260164  RH  068%=      5-min Rain = 0
KBY1 110719Z 03003KT 23/16 A3014 RMK A01 T02260164  RH  068%=      5-min Rain = 0
KBY1 110720Z 03004KT 23/16 A3014 RMK A01 T02260164  RH  068%=      5-min Rain = 0
KBY1 110721Z 03004KT 23/16 A3014 RMK A01 T02260164  RH  068%=      5-min Rain = 0
KBY1 110722Z 03004KT 23/16 A3014 RMK A01 T02260164  RH  068%=      5-min Rain = 0
KBY1 110723Z 03003KT 23/16 A3014 RMK A01 T02260164  RH  068%=      5-min Rain = 0
KBY1 110724Z 04004KT 23/16 A3014 RMK A01 T02260164  RH  068%=      5-min Rain = 0
KBY1 110725Z 05003KT 23/17 A3014 RMK A01 T02260165  RH  068%=      5-min Rain = 0
KBY1 110726Z 04003KT 23/17 A3014 RMK A01 T02250165  RH  068%=      5-min Rain = 0
KBY1 110727Z 04003KT 23/17 A3014 RMK A01 T02250165  RH  069%=      5-min Rain = 0
KBY1 110728Z 04003KT 23/17 A3014 RMK A01 T02250165  RH  069%=      5-min Rain = 0
KBY1 110729Z 03003KT 23/16 A3014 RMK A01 T02250164  RH  069%=      5-min Rain = 0
KBY1 110730Z 03003KT 23/16 A3014 RMK A01 T02250164  RH  068%=      5-min Rain = 0
KBY1 110731Z 03003KT 23/16 A3014 RMK A01 T02250164  RH  068%=      5-min Rain = 0
KBY1 110732Z 03003KT 23/16 A3014 RMK A01 T02250163  RH  068%=      5-min Rain = 0
KBY1 110733Z 03003KT 23/16 A3014 RMK A01 T02250163  RH  068%=      5-min Rain = 0
KBY1 110734Z 04003KT 23/16 A3014 RMK A01 T02260163  RH  068%=      5-min Rain = 0
KBY1 110735Z 04003KT 23/16 A3014 RMK A01 T02250163  RH  068%=      5-min Rain = 0
KBY1 110736Z 05003KT 23/16 A3014 RMK A01 T02250163  RH  068%=      5-min Rain = 0
KBY1 110737Z 05003KT 23/16 A3014 RMK A01 T02250164  RH  068%=      5-min Rain = 0
KBY1 110738Z 05003KT 22/16 A3014 RMK A01 T02240164  RH  068%=      5-min Rain = 0
KBY1 110739Z 05003KT 22/16 A3014 RMK A01 T02240164  RH  069%=      5-min Rain = 0
KBY1 110740Z 05003KT 22/16 A3014 RMK A01 T02230164  RH  069%=      5-min Rain = 0
KBY1 110741Z 05003KT 22/16 A3014 RMK A01 T02220164  RH  069%=      5-min Rain = 0
KBY1 110742Z 05003KT 22/16 A3014 RMK A01 T02220164  RH  069%=      5-min Rain = 0
KBY1 110743Z 05003KT 22/16 A3014 RMK A01 T02220163  RH  069%=      5-min Rain = 0
KBY1 110744Z 05003KT 22/16 A3014 RMK A01 T02220163  RH  070%=      5-min Rain = 0
KBY1 110745Z 05003KT 22/16 A3014 RMK A01 T02210163  RH  069%=      5-min Rain = 0
KBY1 110746Z 05003KT 22/16 A3014 RMK A01 T02220164  RH  070%=      5-min Rain = 0
KBY1 110747Z 04003KT 22/16 A3014 RMK A01 T02220164  RH  069%=      5-min Rain = 0
KBY1 110748Z 04002KT 22/16 A3014 RMK A01 T02220164  RH  069%=      5-min Rain = 0
KBY1 110749Z 03002KT 22/16 A3014 RMK A01 T02230164  RH  069%=      5-min Rain = 0
KBY1 110750Z 05003KT 22/16 A3014 RMK A01 T02230164  RH  069%=      5-min Rain = 0
KBY1 110751Z 05003KT 22/16 A3014 RMK A01 T02230164  RH  069%=      5-min Rain = 0
KBY1 110752Z 06003KT 22/16 A3014 RMK A01 T02230164  RH  069%=      5-min Rain = 0
KBY1 110753Z 07003KT 22/16 A3014 RMK A01 T02220163  RH  070%=      5-min Rain = 0
KBY1 110754Z 07002KT 22/16 A3014 RMK A01 T02190163  RH  071%=      5-min Rain = 0
KBY1 110755Z 07002KT 22/16 A3014 RMK A01 T02170163  RH  072%=      5-min Rain = 0
KBY1 110756Z 09001KT 22/16 A3014 RMK A01 T02150162  RH  072%=      5-min Rain = 0
KBY1 110757Z 13001KT 21/16 A3014 RMK A01 T02110160  RH  072%=      5-min Rain = 0
KBY1 110758Z 13001KT 21/16 A3014 RMK A01 T02080161  RH  074%=      5-min Rain = 0
KBY1 110759Z 17001KT 21/16 A3014 RMK A01 T02060161  RH  076%=      5-min Rain = 0
KBY1 110800Z 15000KT 20/16 A3014 RMK A01 T02040162  RH  077%=      5-min Rain = 0
KBY1 110801Z 00000KT 20/16 A3014 RMK A01 T02040163  RH  077%=      5-min Rain = 0
KBY1 110802Z 08000KT 20/16 A3014 RMK A01 T02040163  RH  077%=      5-min Rain = 0
KBY1 110803Z 03001KT 21/16 A3014 RMK A01 T02050163  RH  077%=      5-min Rain = 0
KBY1 110804Z 03002KT 21/16 A3014 RMK A01 T02060163  RH  076%=      5-min Rain = 0
KBY1 110805Z 01001KT 21/16 A3014 RMK A01 T02060163  RH  076%=      5-min Rain = 0
KBY1 110806Z 03001KT 21/16 A3014 RMK A01 T02070163  RH  076%=      5-min Rain = 0
KBY1 110807Z 33000KT 21/16 A3014 RMK A01 T02070162  RH  075%=      5-min Rain = 0
KBY1 110808Z 29001KT 21/16 A3014 RMK A01 T02070162  RH  075%=      5-min Rain = 0
KBY1 110809Z 32001KT 21/16 A3014 RMK A01 T02070162  RH  076%=      5-min Rain = 0
KBY1 110810Z 34001KT 21/16 A3014 RMK A01 T02070163  RH  076%=      5-min Rain = 0
KBY1 110811Z 00002KT 21/16 A3014 RMK A01 T02080164  RH  076%=      5-min Rain = 0
KBY1 110812Z 02003KT 21/17 A3014 RMK A01 T02090165  RH  076%=      5-min Rain = 0
KBY1 110813Z 03003KT 21/17 A3014 RMK A01 T02110165  RH  075%=      5-min Rain = 0
KBY1 110814Z 02002KT 21/17 A3014 RMK A01 T02120165  RH  075%=      5-min Rain = 0
KBY1 110815Z 03001KT 21/17 A3014 RMK A01 T02120165  RH  074%=      5-min Rain = 0
KBY1 110816Z 02002KT 21/17 A3014 RMK A01 T02130166  RH  074%=      5-min Rain = 0
KBY1 110817Z 00002KT 21/17 A3014 RMK A01 T02140166  RH  074%=      5-min Rain = 0
KBY1 110818Z 36002KT 22/17 A3014 RMK A01 T02150166  RH  073%=      5-min Rain = 0
KBY1 110819Z 01002KT 22/17 A3013 RMK A01 T02160165  RH  073%=      5-min Rain = 0
KBY1 110820Z 01001KT 22/17 A3013 RMK A01 T02160165  RH  073%=      5-min Rain = 0
KBY1 110821Z 34001KT 22/16 A3014 RMK A01 T02150164  RH  073%=      5-min Rain = 0
KBY1 110822Z 00000KT 21/17 A3014 RMK A01 T02140165  RH  073%=      5-min Rain = 0
KBY1 110823Z 00000KT 21/16 A3013 RMK A01 T02140164  RH  073%=      5-min Rain = 0
KBY1 110824Z 00000KT 21/16 A3013 RMK A01 T02120163  RH  073%=      5-min Rain = 0
KBY1 110825Z 00000KT 21/16 A3013 RMK A01 T02100162  RH  074%=      5-min Rain = 0
KBY1 110826Z 18001KT 21/16 A3013 RMK A01 T02070161  RH  075%=      5-min Rain = 0
KBY1 110827Z 20001KT 20/16 A3013 RMK A01 T02040161  RH  076%=      5-min Rain = 0
KBY1 110828Z 19001KT 20/16 A3013 RMK A01 T02020161  RH  077%=      5-min Rain = 0
KBY1 110829Z 19001KT 20/16 A3013 RMK A01 T02020162  RH  078%=      5-min Rain = 0
KBY1 110830Z 19001KT 20/16 A3013 RMK A01 T02020162  RH  078%=      5-min Rain = 0
KBY1 110831Z 21001KT 20/16 A3013 RMK A01 T02020162  RH  078%=      5-min Rain = 0
KBY1 110832Z 22001KT 20/16 A3013 RMK A01 T02030162  RH  077%=      5-min Rain = 0
KBY1 110833Z 22002KT 20/16 A3013 RMK A01 T02030162  RH  077%=      5-min Rain = 0
KBY1 110834Z 21002KT 20/16 A3013 RMK A01 T02040163  RH  077%=      5-min Rain = 0
KBY1 110835Z 20001KT 20/16 A3013 RMK A01 T02040162  RH  077%=      5-min Rain = 0
KBY1 110836Z 20002KT 20/16 A3013 RMK A01 T02040162  RH  077%=      5-min Rain = 0
KBY1 110837Z 21002KT 20/16 A3013 RMK A01 T02040162  RH  077%=      5-min Rain = 0
KBY1 110838Z 21002KT 20/16 A3013 RMK A01 T02040162  RH  076%=      5-min Rain = 0
KBY1 110839Z 21002KT 20/16 A3013 RMK A01 T02040162  RH  077%=      5-min Rain = 0
KBY1 110840Z 20001KT 20/16 A3013 RMK A01 T02030161  RH  077%=      5-min Rain = 0
KBY1 110841Z 20001KT 20/16 A3013 RMK A01 T02030161  RH  077%=      5-min Rain = 0
KBY1 110842Z 20001KT 20/16 A3013 RMK A01 T02030162  RH  077%=      5-min Rain = 0
KBY1 110843Z 19001KT 20/16 A3013 RMK A01 T02030162  RH  077%=      5-min Rain = 0
KBY1 110844Z 19001KT 20/16 A3013 RMK A01 T02030160  RH  076%=      5-min Rain = 0
KBY1 110845Z 20001KT 20/16 A3013 RMK A01 T02030160  RH  076%=      5-min Rain = 0
KBY1 110846Z 21001KT 20/16 A3013 RMK A01 T02030161  RH  077%=      5-min Rain = 0
KBY1 110847Z 22001KT 20/16 A3013 RMK A01 T02030161  RH  077%=      5-min Rain = 0
KBY1 110848Z 22001KT 20/16 A3013 RMK A01 T02030162  RH  077%=      5-min Rain = 0
KBY1 110849Z 21000KT 20/16 A3013 RMK A01 T02030162  RH  077%=      5-min Rain = 0
KBY1 110850Z 00000KT 20/16 A3013 RMK A01 T02030162  RH  077%=      5-min Rain = 0
KBY1 110851Z 00000KT 20/16 A3013 RMK A01 T02030163  RH  078%=      5-min Rain = 0
KBY1 110852Z 00000KT 20/16 A3013 RMK A01 T02030163  RH  077%=      5-min Rain = 0
KBY1 110853Z 00000KT 20/16 A3013 RMK A01 T02030163  RH  078%=      5-min Rain = 0
KBY1 110854Z 00000KT 20/16 A3013 RMK A01 T02030162  RH  077%=      5-min Rain = 0
KBY1 110855Z 00000KT 20/16 A3013 RMK A01 T02030162  RH  077%=      5-min Rain = 0
KBY1 110856Z 00000KT 20/16 A3013 RMK A01 T02030162  RH  078%=      5-min Rain = 0
KBY1 110857Z 00000KT 20/16 A3013 RMK A01 T02030164  RH  078%=      5-min Rain = 0
KBY1 110858Z 00000KT 20/16 A3013 RMK A01 T02030163  RH  078%=      5-min Rain = 0
KBY1 110859Z 00000KT 20/16 A3013 RMK A01 T02030163  RH  078%=      5-min Rain = 0
KBY1 110900Z 00000KT 20/16 A3013 RMK A01 T02030163  RH  078%=      5-min Rain = 0
KBY1 110901Z 00000KT 20/16 A3013 RMK A01 T02030163  RH  078%=      5-min Rain = 0
KBY1 110902Z 06001KT 20/16 A3013 RMK A01 T02030163  RH  077%=      5-min Rain = 0
KBY1 110903Z 06001KT 20/16 A3013 RMK A01 T02030162  RH  077%=      5-min Rain = 0
KBY1 110904Z 06001KT 20/16 A3013 RMK A01 T02030163  RH  078%=      5-min Rain = 0
KBY1 110905Z 06001KT 20/16 A3013 RMK A01 T02020162  RH  077%=      5-min Rain = 0
KBY1 110906Z 05000KT 20/16 A3013 RMK A01 T02020161  RH  077%=      5-min Rain = 0
KBY1 110907Z 04001KT 20/16 A3013 RMK A01 T02010163  RH  078%=      5-min Rain = 0
KBY1 110908Z 02001KT 20/16 A3013 RMK A01 T02010163  RH  079%=      5-min Rain = 0
KBY1 110909Z 00000KT 20/16 A3013 RMK A01 T02020164  RH  079%=      5-min Rain = 0
KBY1 110910Z 00000KT 20/16 A3013 RMK A01 T02020164  RH  078%=      5-min Rain = 0
KBY1 110911Z 00000KT 20/16 A3013 RMK A01 T02030164  RH  078%=      5-min Rain = 0
KBY1 110912Z 00000KT 20/16 A3013 RMK A01 T02030163  RH  078%=      5-min Rain = 0
KBY1 110913Z 00000KT 20/16 A3013 RMK A01 T02030163  RH  078%=      5-min Rain = 0
KBY1 110914Z 00000KT 20/16 A3013 RMK A01 T02030163  RH  078%=      5-min Rain = 0
KBY1 110915Z 00000KT 20/16 A3013 RMK A01 T02030164  RH  078%=      5-min Rain = 0
KBY1 110916Z 00000KT 20/16 A3013 RMK A01 T02030162  RH  077%=      5-min Rain = 0
KBY1 110917Z 00000KT 20/16 A3013 RMK A01 T02030161  RH  077%=      5-min Rain = 0
KBY1 110918Z 00000KT 20/16 A3013 RMK A01 T02020162  RH  078%=      5-min Rain = 0
KBY1 110919Z 30000KT 20/16 A3013 RMK A01 T02010162  RH  078%=      5-min Rain = 0
KBY1 110920Z 30000KT 20/16 A3013 RMK A01 T01990159  RH  078%=      5-min Rain = 0
KBY1 110921Z 00000KT 20/16 A3013 RMK A01 T01970158  RH  078%=      5-min Rain = 0
KBY1 110922Z 00000KT 20/16 A3013 RMK A01 T01950157  RH  079%=      5-min Rain = 0
KBY1 110923Z 00000KT 19/16 A3013 RMK A01 T01940157  RH  079%=      5-min Rain = 0
KBY1 110924Z 00000KT 19/16 A3013 RMK A01 T01930157  RH  079%=      5-min Rain = 0
KBY1 110925Z 00000KT 19/16 A3013 RMK A01 T01920156  RH  080%=      5-min Rain = 0
KBY1 110926Z 00000KT 19/16 A3013 RMK A01 T01910157  RH  080%=      5-min Rain = 0
KBY1 110927Z 00000KT 19/16 A3013 RMK A01 T01910158  RH  081%=      5-min Rain = 0
KBY1 110928Z 00000KT 19/16 A3013 RMK A01 T01910158  RH  081%=      5-min Rain = 0
KBY1 110929Z 00000KT 19/16 A3013 RMK A01 T01910158  RH  082%=      5-min Rain = 0
KBY1 110930Z 00000KT 19/16 A3013 RMK A01 T01910159  RH  082%=      5-min Rain = 0
KBY1 110931Z 00000KT 19/16 A3013 RMK A01 T01910158  RH  082%=      5-min Rain = 0
KBY1 110932Z 00000KT 19/16 A3013 RMK A01 T01910158  RH  082%=      5-min Rain = 0
KBY1 110933Z 00000KT 19/16 A3013 RMK A01 T01910158  RH  081%=      5-min Rain = 0
KBY1 110934Z 00000KT 19/16 A3013 RMK A01 T01910159  RH  082%=      5-min Rain = 0
KBY1 110935Z 00000KT 19/16 A3013 RMK A01 T01910159  RH  082%=      5-min Rain = 0
KBY1 110936Z 05000KT 19/16 A3013 RMK A01 T01910159  RH  082%=      5-min Rain = 0
KBY1 110937Z 06001KT 19/16 A3013 RMK A01 T01910158  RH  081%=      5-min Rain = 0
KBY1 110938Z 08001KT 19/16 A3013 RMK A01 T01900157  RH  081%=      5-min Rain = 0
KBY1 110939Z 10000KT 19/16 A3013 RMK A01 T01900156  RH  081%=      5-min Rain = 0
KBY1 110940Z 06001KT 19/16 A3013 RMK A01 T01900157  RH  081%=      5-min Rain = 0
KBY1 110941Z 07001KT 19/16 A3013 RMK A01 T01900157  RH  081%=      5-min Rain = 0
KBY1 110942Z 06001KT 19/16 A3013 RMK A01 T01890157  RH  082%=      5-min Rain = 0
KBY1 110943Z 06001KT 19/16 A3013 RMK A01 T01890158  RH  082%=      5-min Rain = 0
KBY1 110944Z 04001KT 19/16 A3013 RMK A01 T01890158  RH  082%=      5-min Rain = 0
KBY1 110945Z 03001KT 19/16 A3013 RMK A01 T01890157  RH  082%=      5-min Rain = 0
KBY1 110946Z 03000KT 19/16 A3013 RMK A01 T01890158  RH  082%=      5-min Rain = 0
KBY1 110947Z 00000KT 19/16 A3013 RMK A01 T01900159  RH  082%=      5-min Rain = 0
KBY1 110948Z 07001KT 19/16 A3013 RMK A01 T01900158  RH  082%=      5-min Rain = 0
KBY1 110949Z 06001KT 19/16 A3013 RMK A01 T01900159  RH  082%=      5-min Rain = 0
KBY1 110950Z 06001KT 19/16 A3013 RMK A01 T01910159  RH  082%=      5-min Rain = 0
KBY1 110951Z 05000KT 19/16 A3013 RMK A01 T01910158  RH  082%=      5-min Rain = 0
KBY1 110952Z 00000KT 19/16 A3013 RMK A01 T01900159  RH  082%=      5-min Rain = 0
KBY1 110953Z 00000KT 19/16 A3013 RMK A01 T01910160  RH  082%=      5-min Rain = 0
KBY1 110954Z 00000KT 19/16 A3013 RMK A01 T01900160  RH  082%=      5-min Rain = 0
KBY1 110955Z 00000KT 19/16 A3013 RMK A01 T01910160  RH  083%=      5-min Rain = 0
KBY1 110956Z 07000KT 19/16 A3013 RMK A01 T01910160  RH  082%=      5-min Rain = 0
KBY1 110957Z 06001KT 19/16 A3013 RMK A01 T01910160  RH  082%=      5-min Rain = 0
KBY1 110958Z 06001KT 19/16 A3013 RMK A01 T01910159  RH  082%=      5-min Rain = 0
KBY1 110959Z 06002KT 19/16 A3013 RMK A01 T01910159  RH  082%=      5-min Rain = 0
KBY1 111000Z 06002KT 19/16 A3013 RMK A01 T01910159  RH  082%=      5-min Rain = 0
KBY1 111001Z 06003KT 19/16 A3013 RMK A01 T01910158  RH  081%=      5-min Rain = 0
KBY1 111002Z 06003KT 19/16 A3013 RMK A01 T01900157  RH  081%=      5-min Rain = 0
KBY1 111003Z 07002KT 19/16 A3013 RMK A01 T01890157  RH  081%=      5-min Rain = 0
KBY1 111004Z 07002KT 19/16 A3013 RMK A01 T01890157  RH  082%=      5-min Rain = 0
KBY1 111005Z 07002KT 19/16 A3013 RMK A01 T01890157  RH  082%=      5-min Rain = 0
KBY1 111006Z 06002KT 19/16 A3013 RMK A01 T01890159  RH  083%=      5-min Rain = 0
KBY1 111007Z 05002KT 19/16 A3013 RMK A01 T01890159  RH  083%=      5-min Rain = 0
KBY1 111008Z 05002KT 19/16 A3013 RMK A01 T01900161  RH  083%=      5-min Rain = 0
KBY1 111009Z 06002KT 19/16 A3013 RMK A01 T01910163  RH  083%=      5-min Rain = 0
KBY1 111010Z 06002KT 19/17 A3013 RMK A01 T01930165  RH  084%=      5-min Rain = 0
KBY1 111011Z 05002KT 20/17 A3013 RMK A01 T01950166  RH  084%=      5-min Rain = 0
KBY1 111012Z 05002KT 20/17 A3013 RMK A01 T01960166  RH  083%=      5-min Rain = 0
KBY1 111013Z 05002KT 20/17 A3013 RMK A01 T01970166  RH  082%=      5-min Rain = 0
KBY1 111014Z 05002KT 20/17 A3013 RMK A01 T01970167  RH  082%=      5-min Rain = 0
KBY1 111015Z 06001KT 20/17 A3013 RMK A01 T01980166  RH  082%=      5-min Rain = 0
KBY1 111016Z 05001KT 20/16 A3013 RMK A01 T01980164  RH  081%=      5-min Rain = 0
KBY1 111017Z 06001KT 20/17 A3013 RMK A01 T01980165  RH  081%=      5-min Rain = 0
KBY1 111018Z 08001KT 20/17 A3013 RMK A01 T01970165  RH  081%=      5-min Rain = 0
KBY1 111019Z 12001KT 20/16 A3013 RMK A01 T01970164  RH  081%=      5-min Rain = 0
KBY1 111020Z 09001KT 20/16 A3013 RMK A01 T01950162  RH  081%=      5-min Rain = 0
KBY1 111021Z 09001KT 19/16 A3013 RMK A01 T01940164  RH  083%=      5-min Rain = 0
KBY1 111022Z 12001KT 19/16 A3013 RMK A01 T01940164  RH  083%=      5-min Rain = 0
KBY1 111023Z 11001KT 19/16 A3013 RMK A01 T01930164  RH  083%=      5-min Rain = 0
KBY1 111024Z 13002KT 19/16 A3013 RMK A01 T01920162  RH  083%=      5-min Rain = 0
KBY1 111025Z 12002KT 19/16 A3013 RMK A01 T01910164  RH  084%=      5-min Rain = 0
KBY1 111026Z 15002KT 19/16 A3013 RMK A01 T01910163  RH  084%=      5-min Rain = 0
KBY1 111027Z 15002KT 19/16 A3013 RMK A01 T01900164  RH  085%=      5-min Rain = 0
KBY1 111028Z 12002KT 19/16 A3013 RMK A01 T01890163  RH  085%=      5-min Rain = 0
KBY1 111029Z 13002KT 19/16 A3013 RMK A01 T01880164  RH  086%=      5-min Rain = 0
KBY1 111030Z 15002KT 19/17 A3013 RMK A01 T01880165  RH  087%=      5-min Rain = 0
KBY1 111031Z 15002KT 19/17 A3013 RMK A01 T01880166  RH  087%=      5-min Rain = 0
KBY1 111032Z 14003KT 19/17 A3013 RMK A01 T01880165  RH  087%=      5-min Rain = 0
KBY1 111033Z 14003KT 19/17 A3013 RMK A01 T01870166  RH  087%=      5-min Rain = 0
KBY1 111034Z 14003KT 19/17 A3013 RMK A01 T01870165  RH  087%=      5-min Rain = 0
KBY1 111035Z 15003KT 19/17 A3013 RMK A01 T01870166  RH  087%=      5-min Rain = 0
KBY1 111036Z 15003KT 19/17 A3013 RMK A01 T01870166  RH  087%=      5-min Rain = 0
KBY1 111037Z 13002KT 19/17 A3012 RMK A01 T01870166  RH  087%=      5-min Rain = 0
KBY1 111038Z 13002KT 19/17 A3013 RMK A01 T01870165  RH  087%=      5-min Rain = 0
KBY1 111039Z 13003KT 19/17 A3012 RMK A01 T01870166  RH  087%=      5-min Rain = 0
KBY1 111040Z 13003KT 19/17 A3012 RMK A01 T01870165  RH  087%=      5-min Rain = 0
KBY1 111041Z 14002KT 19/17 A3012 RMK A01 T01870165  RH  087%=      5-min Rain = 0
KBY1 111042Z 14002KT 19/17 A3012 RMK A01 T01870166  RH  087%=      5-min Rain = 0
KBY1 111043Z 12002KT 19/17 A3012 RMK A01 T01870166  RH  088%=      5-min Rain = 0
KBY1 111044Z 10002KT 19/17 A3012 RMK A01 T01870167  RH  088%=      5-min Rain = 0
KBY1 111045Z 11002KT 19/17 A3013 RMK A01 T01870167  RH  088%=      5-min Rain = 0
KBY1 111046Z 10002KT 19/17 A3013 RMK A01 T01880167  RH  088%=      5-min Rain = 0
KBY1 111047Z 08001KT 19/17 A3013 RMK A01 T01880167  RH  088%=      5-min Rain = 0
KBY1 111048Z 07001KT 19/17 A3013 RMK A01 T01880167  RH  087%=      5-min Rain = 0
KBY1 111049Z 06001KT 19/17 A3013 RMK A01 T01880166  RH  087%=      5-min Rain = 0
KBY1 111050Z 05002KT 19/17 A3013 RMK A01 T01890167  RH  087%=      5-min Rain = 0
KBY1 111051Z 05002KT 19/17 A3012 RMK A01 T01890167  RH  087%=      5-min Rain = 0
KBY1 111052Z 04002KT 19/17 A3012 RMK A01 T01890167  RH  087%=      5-min Rain = 0
KBY1 111053Z 05002KT 19/17 A3012 RMK A01 T01890168  RH  087%=      5-min Rain = 0
KBY1 111054Z 05001KT 19/17 A3012 RMK A01 T01890168  RH  087%=      5-min Rain = 0
KBY1 111055Z 07002KT 19/17 A3012 RMK A01 T01890168  RH  088%=      5-min Rain = 0
KBY1 111056Z 07002KT 19/17 A3012 RMK A01 T01900169  RH  088%=      5-min Rain = 0
KBY1 111057Z 06002KT 19/17 A3012 RMK A01 T01900169  RH  088%=      5-min Rain = 0
KBY1 111058Z 07002KT 19/17 A3012 RMK A01 T01910169  RH  087%=      5-min Rain = 0
KBY1 111059Z 07002KT 19/17 A3012 RMK A01 T01910168  RH  087%=      5-min Rain = 0
KBY1 111100Z 07002KT 19/17 A3012 RMK A01 T01910168  RH  086%=      5-min Rain = 0
KBY1 111101Z 06002KT 19/17 A3012 RMK A01 T01910168  RH  086%=      5-min Rain = 0
KBY1 111102Z 08002KT 19/17 A3012 RMK A01 T01920168  RH  086%=      5-min Rain = 0
KBY1 111103Z 07002KT 19/17 A3012 RMK A01 T01920168  RH  086%=      5-min Rain = 0
KBY1 111104Z 07001KT 19/17 A3012 RMK A01 T01920168  RH  086%=      5-min Rain = 0
KBY1 111105Z 08002KT 19/17 A3012 RMK A01 T01910168  RH  086%=      5-min Rain = 0
KBY1 111106Z 11002KT 19/17 A3012 RMK A01 T01910168  RH  086%=      5-min Rain = 0
KBY1 111107Z 11001KT 19/17 A3012 RMK A01 T01910166  RH  085%=      5-min Rain = 0
KBY1 111108Z 09001KT 19/17 A3012 RMK A01 T01920168  RH  086%=      5-min Rain = 0
KBY1 111109Z 07002KT 19/17 A3012 RMK A01 T01930168  RH  086%=      5-min Rain = 0
KBY1 111110Z 08002KT 19/17 A3012 RMK A01 T01930167  RH  085%=      5-min Rain = 0
KBY1 111111Z 08003KT 19/17 A3012 RMK A01 T01920167  RH  085%=      5-min Rain = 0
KBY1 111112Z 07003KT 19/17 A3012 RMK A01 T01920168  RH  086%=      5-min Rain = 0
KBY1 111113Z 06003KT 19/17 A3012 RMK A01 T01910168  RH  086%=      5-min Rain = 0
KBY1 111114Z 07003KT 19/17 A3012 RMK A01 T01910169  RH  087%=      5-min Rain = 0
KBY1 111115Z 06003KT 19/17 A3012 RMK A01 T01910168  RH  087%=      5-min Rain = 0
KBY1 111116Z 07002KT 19/17 A3012 RMK A01 T01910169  RH  087%=      5-min Rain = 0
KBY1 111117Z 05002KT 19/17 A3012 RMK A01 T01900168  RH  087%=      5-min Rain = 0
KBY1 111118Z 05003KT 19/17 A3012 RMK A01 T01900169  RH  087%=      5-min Rain = 0
KBY1 111119Z 03003KT 19/17 A3012 RMK A01 T01900168  RH  087%=      5-min Rain = 0
KBY1 111120Z 03002KT 19/17 A3013 RMK A01 T01910168  RH  086%=      5-min Rain = 0
KBY1 111121Z 36003KT 19/17 A3013 RMK A01 T01930167  RH  085%=      5-min Rain = 0
KBY1 111122Z 35003KT 19/17 A3013 RMK A01 T01940166  RH  084%=      5-min Rain = 0
KBY1 111123Z 36003KT 20/17 A3013 RMK A01 T01950165  RH  083%=      5-min Rain = 0
KBY1 111124Z 01002KT 20/17 A3013 RMK A01 T01950166  RH  083%=      5-min Rain = 0
KBY1 111125Z 03002KT 20/17 A3013 RMK A01 T01950166  RH  083%=      5-min Rain = 0
KBY1 111126Z 06001KT 20/17 A3013 RMK A01 T01950166  RH  084%=      5-min Rain = 0
KBY1 111127Z 09002KT 19/17 A3013 RMK A01 T01940166  RH  084%=      5-min Rain = 0
KBY1 111128Z 10004KT 19/17 A3013 RMK A01 T01940166  RH  084%=      5-min Rain = 0
KBY1 111129Z 13004KT 19/17 A3013 RMK A01 T01940166  RH  084%=      5-min Rain = 0
KBY1 111130Z 13004KT 19/17 A3013 RMK A01 T01930166  RH  084%=      5-min Rain = 0
KBY1 111131Z 12004KT 19/17 A3013 RMK A01 T01930165  RH  084%=      5-min Rain = 0
KBY1 111132Z 12004KT 19/17 A3013 RMK A01 T01930165  RH  084%=      5-min Rain = 0
KBY1 111133Z 11004KT 19/17 A3013 RMK A01 T01930165  RH  084%=      5-min Rain = 0
KBY1 111134Z 11004KT 19/17 A3013 RMK A01 T01920165  RH  084%=      5-min Rain = 0
KBY1 111135Z 09003KT 19/17 A3013 RMK A01 T01920165  RH  084%=      5-min Rain = 0
KBY1 111136Z 01002KT 19/17 A3013 RMK A01 T01920165  RH  084%=      5-min Rain = 0
KBY1 111137Z 36002KT 19/17 A3013 RMK A01 T01920165  RH  084%=      5-min Rain = 0
KBY1 111138Z 01003KT 19/17 A3013 RMK A01 T01910165  RH  085%=      5-min Rain = 0
KBY1 111139Z 00003KT 19/17 A3013 RMK A01 T01920165  RH  084%=      5-min Rain = 0
KBY1 111140Z 36003KT 19/17 A3013 RMK A01 T01930165  RH  084%=      5-min Rain = 0
KBY1 111141Z 35003KT 19/17 A3013 RMK A01 T01940165  RH  083%=      5-min Rain = 0
KBY1 111142Z 00002KT 19/16 A3013 RMK A01 T01940164  RH  083%=      5-min Rain = 0
KBY1 111143Z 02001KT 19/16 A3013 RMK A01 T01940164  RH  083%=      5-min Rain = 0
KBY1 111144Z 05001KT 19/16 A3013 RMK A01 T01940164  RH  083%=      5-min Rain = 0
KBY1 111145Z 05000KT 19/16 A3013 RMK A01 T01940164  RH  083%=      5-min Rain = 0
KBY1 111146Z 06001KT 19/16 A3013 RMK A01 T01940164  RH  083%=      5-min Rain = 0
KBY1 111147Z 02001KT 19/16 A3013 RMK A01 T01940163  RH  082%=      5-min Rain = 0
KBY1 111148Z 36001KT 19/16 A3013 RMK A01 T01940163  RH  082%=      5-min Rain = 0
KBY1 111149Z 35002KT 19/16 A3013 RMK A01 T01930162  RH  082%=      5-min Rain = 0
KBY1 111150Z 36002KT 19/16 A3013 RMK A01 T01920162  RH  083%=      5-min Rain = 0
KBY1 111151Z 36002KT 19/16 A3013 RMK A01 T01920162  RH  083%=      5-min Rain = 0
KBY1 111152Z 36002KT 19/16 A3013 RMK A01 T01920163  RH  083%=      5-min Rain = 0
KBY1 111153Z 01001KT 19/16 A3013 RMK A01 T01920163  RH  083%=      5-min Rain = 0
KBY1 111154Z 02001KT 19/16 A3013 RMK A01 T01920162  RH  083%=      5-min Rain = 0
KBY1 111155Z 03002KT 19/16 A3013 RMK A01 T01920162  RH  083%=      5-min Rain = 0
KBY1 111156Z 03002KT 19/16 A3013 RMK A01 T01920162  RH  083%=      5-min Rain = 0
KBY1 111157Z 03001KT 19/16 A3013 RMK A01 T01930162  RH  083%=      5-min Rain = 0
KBY1 111158Z 08000KT 19/16 A3013 RMK A01 T01920162  RH  083%=      5-min Rain = 0
KBY1 111159Z 06000KT 19/16 A3013 RMK A01 T01920162  RH  083%=      5-min Rain = 0
KBY1 111200Z 05001KT 19/16 A3013 RMK A01 T01910162  RH  083%=      5-min Rain = 0
KBY1 111201Z 05001KT 19/16 A3013 RMK A01 T01910162  RH  083%=      5-min Rain = 0
KBY1 111202Z 04000KT 19/16 A3013 RMK A01 T01910162  RH  083%=      5-min Rain = 0
KBY1 111203Z 00000KT 19/16 A3013 RMK A01 T01910162  RH  083%=      5-min Rain = 0
KBY1 111204Z 00000KT 19/16 A3013 RMK A01 T01900161  RH  083%=      5-min Rain = 0
KBY1 111205Z 00000KT 19/16 A3013 RMK A01 T01890162  RH  084%=      5-min Rain = 0
KBY1 111206Z 00000KT 19/16 A3013 RMK A01 T01890162  RH  084%=      5-min Rain = 0
KBY1 111207Z 00000KT 19/16 A3013 RMK A01 T01890162  RH  084%=      5-min Rain = 0
KBY1 111208Z 00000KT 19/16 A3013 RMK A01 T01890161  RH  084%=      5-min Rain = 0
KBY1 111209Z 00000KT 19/16 A3013 RMK A01 T01890161  RH  084%=      5-min Rain = 0
KBY1 111210Z 00000KT 19/16 A3013 RMK A01 T01880161  RH  084%=      5-min Rain = 0
KBY1 111211Z 00000KT 19/16 A3013 RMK A01 T01890161  RH  084%=      5-min Rain = 0
KBY1 111212Z 00000KT 19/16 A3013 RMK A01 T01890161  RH  084%=      5-min Rain = 0
KBY1 111213Z 00000KT 19/16 A3013 RMK A01 T01900161  RH  084%=      5-min Rain = 0
KBY1 111214Z 00000KT 19/16 A3013 RMK A01 T01900162  RH  084%=      5-min Rain = 0
KBY1 111215Z 00000KT 19/16 A3013 RMK A01 T01910162  RH  083%=      5-min Rain = 0
KBY1 111216Z 00000KT 19/16 A3013 RMK A01 T01910162  RH  083%=      5-min Rain = 0
KBY1 111217Z 00000KT 19/16 A3013 RMK A01 T01910162  RH  083%=      5-min Rain = 0
KBY1 111218Z 23001KT 19/16 A3013 RMK A01 T01920162  RH  083%=      5-min Rain = 0
KBY1 111219Z 23002KT 19/16 A3013 RMK A01 T01920162  RH  083%=      5-min Rain = 0
KBY1 111220Z 25001KT 19/16 A3013 RMK A01 T01920162  RH  083%=      5-min Rain = 0
KBY1 111221Z 24001KT 19/16 A3013 RMK A01 T01930163  RH  083%=      5-min Rain = 0
KBY1 111222Z 22001KT 19/16 A3013 RMK A01 T01930163  RH  083%=      5-min Rain = 0
KBY1 111223Z 22001KT 19/16 A3013 RMK A01 T01940163  RH  082%=      5-min Rain = 0
KBY1 111224Z 23000KT 20/16 A3013 RMK A01 T01950163  RH  082%=      5-min Rain = 0
KBY1 111225Z 22002KT 20/16 A3013 RMK A01 T01950163  RH  082%=      5-min Rain = 0
KBY1 111226Z 22003KT 20/16 A3013 RMK A01 T01950163  RH  082%=      5-min Rain = 0
KBY1 111227Z 23001KT 20/16 A3013 RMK A01 T01950163  RH  082%=      5-min Rain = 0
KBY1 111228Z 25001KT 20/16 A3013 RMK A01 T01950163  RH  081%=      5-min Rain = 0
KBY1 111229Z 25001KT 20/16 A3013 RMK A01 T01960163  RH  081%=      5-min Rain = 0
KBY1 111230Z 23001KT 20/16 A3013 RMK A01 T01970163  RH  081%=      5-min Rain = 0
KBY1 111231Z 23001KT 20/16 A3013 RMK A01 T01980164  RH  081%=      5-min Rain = 0
KBY1 111232Z 24000KT 20/17 A3013 RMK A01 T01990165  RH  080%=      5-min Rain = 0
KBY1 111233Z 00000KT 20/17 A3013 RMK A01 T02000165  RH  080%=      5-min Rain = 0
KBY1 111234Z 00000KT 20/17 A3013 RMK A01 T02020165  RH  079%=      5-min Rain = 0
KBY1 111235Z 00000KT 20/17 A3013 RMK A01 T02030165  RH  079%=      5-min Rain = 0
KBY1 111236Z 00000KT 20/17 A3013 RMK A01 T02040165  RH  078%=      5-min Rain = 0
KBY1 111237Z 00000KT 20/17 A3013 RMK A01 T02040165  RH  078%=      5-min Rain = 0
KBY1 111238Z 00000KT 21/17 A3013 RMK A01 T02050165  RH  078%=      5-min Rain = 0
KBY1 111239Z 00000KT 21/17 A3013 RMK A01 T02050165  RH  078%=      5-min Rain = 0
KBY1 111240Z 00000KT 21/17 A3013 RMK A01 T02060167  RH  078%=      5-min Rain = 0
KBY1 111241Z 00000KT 21/17 A3013 RMK A01 T02070166  RH  077%=      5-min Rain = 0
KBY1 111242Z 00000KT 21/17 A3013 RMK A01 T02080166  RH  077%=      5-min Rain = 0
KBY1 111243Z 00000KT 21/17 A3013 RMK A01 T02090166  RH  077%=      5-min Rain = 0
KBY1 111244Z 00000KT 21/17 A3013 RMK A01 T02100166  RH  076%=      5-min Rain = 0
KBY1 111245Z 00000KT 21/17 A3013 RMK A01 T02110165  RH  075%=      5-min Rain = 0
KBY1 111246Z 00000KT 21/17 A3013 RMK A01 T02120166  RH  075%=      5-min Rain = 0
KBY1 111247Z 00000KT 21/17 A3013 RMK A01 T02140167  RH  074%=      5-min Rain = 0
KBY1 111248Z 09000KT 22/17 A3013 RMK A01 T02170167  RH  073%=      5-min Rain = 0
KBY1 111249Z 06001KT 22/17 A3013 RMK A01 T02180167  RH  073%=      5-min Rain = 0
KBY1 111250Z 06000KT 22/17 A3013 RMK A01 T02190166  RH  072%=      5-min Rain = 0
KBY1 111251Z 05001KT 22/17 A3013 RMK A01 T02190166  RH  071%=      5-min Rain = 0
KBY1 111252Z 06000KT 22/17 A3013 RMK A01 T02200166  RH  071%=      5-min Rain = 0
KBY1 111253Z 05000KT 22/17 A3013 RMK A01 T02210167  RH  071%=      5-min Rain = 0
KBY1 111254Z 08000KT 22/17 A3013 RMK A01 T02220168  RH  072%=      5-min Rain = 0
KBY1 111255Z 07001KT 22/17 A3013 RMK A01 T02220168  RH  071%=      5-min Rain = 0
KBY1 111256Z 06001KT 22/17 A3013 RMK A01 T02220167  RH  071%=      5-min Rain = 0
KBY1 111257Z 08001KT 22/17 A3013 RMK A01 T02220168  RH  071%=      5-min Rain = 0
KBY1 111258Z 09001KT 22/17 A3013 RMK A01 T02220169  RH  072%=      5-min Rain = 0
KBY1 111259Z 08001KT 22/17 A3013 RMK A01 T02220168  RH  071%=      5-min Rain = 0
KBY1 111300Z 09001KT 22/17 A3013 RMK A01 T02230168  RH  071%=      5-min Rain = 0
KBY1 111301Z 09002KT 22/17 A3013 RMK A01 T02230169  RH  072%=      5-min Rain = 0
KBY1 111302Z 10002KT 22/17 A3013 RMK A01 T02230169  RH  071%=      5-min Rain = 0
KBY1 111303Z 10002KT 22/17 A3013 RMK A01 T02210169  RH  072%=      5-min Rain = 0
KBY1 111304Z 10002KT 22/17 A3013 RMK A01 T02210170  RH  073%=      5-min Rain = 0
KBY1 111305Z 11002KT 22/17 A3013 RMK A01 T02200169  RH  073%=      5-min Rain = 0
KBY1 111306Z 11002KT 22/17 A3013 RMK A01 T02200170  RH  073%=      5-min Rain = 0
KBY1 111307Z 11002KT 22/17 A3013 RMK A01 T02200170  RH  073%=      5-min Rain = 0
KBY1 111308Z 10002KT 22/17 A3013 RMK A01 T02200170  RH  073%=      5-min Rain = 0
KBY1 111309Z 09001KT 22/17 A3013 RMK A01 T02200170  RH  073%=      5-min Rain = 0
KBY1 111310Z 07001KT 22/17 A3013 RMK A01 T02210169  RH  072%=      5-min Rain = 0
KBY1 111311Z 09001KT 22/17 A3013 RMK A01 T02220169  RH  072%=      5-min Rain = 0
KBY1 111312Z 07001KT 22/17 A3013 RMK A01 T02240169  RH  071%=      5-min Rain = 0
KBY1 111313Z 08001KT 22/17 A3013 RMK A01 T02240167  RH  070%=      5-min Rain = 0
KBY1 111314Z 11000KT 23/17 A3013 RMK A01 T02250168  RH  070%=      5-min Rain = 0
KBY1 111315Z 10001KT 23/17 A3013 RMK A01 T02270170  RH  070%=      5-min Rain = 0
KBY1 111316Z 09001KT 23/17 A3013 RMK A01 T02280170  RH  069%=      5-min Rain = 0
KBY1 111317Z 07001KT 23/17 A3013 RMK A01 T02300171  RH  069%=      5-min Rain = 0
KBY1 111318Z 06001KT 23/17 A3013 RMK A01 T02320170  RH  068%=      5-min Rain = 0
KBY1 111319Z 06000KT 23/17 A3013 RMK A01 T02330169  RH  067%=      5-min Rain = 0
KBY1 111320Z 03000KT 24/17 A3013 RMK A01 T02350170  RH  067%=      5-min Rain = 0
KBY1 111321Z 05001KT 24/17 A3013 RMK A01 T02360169  RH  066%=      5-min Rain = 0
KBY1 111322Z 04000KT 24/17 A3013 RMK A01 T02360169  RH  066%=      5-min Rain = 0
KBY1 111323Z 14000KT 24/17 A3013 RMK A01 T02370169  RH  066%=      5-min Rain = 0
KBY1 111324Z 09000KT 24/17 A3013 RMK A01 T02370168  RH  065%=      5-min Rain = 0
KBY1 111325Z 10000KT 24/17 A3013 RMK A01 T02380167  RH  065%=      5-min Rain = 0
KBY1 111326Z 00000KT 24/17 A3013 RMK A01 T02380167  RH  065%=      5-min Rain = 0
KBY1 111327Z 00000KT 24/17 A3013 RMK A01 T02380167  RH  065%=      5-min Rain = 0
KBY1 111328Z 07000KT 24/17 A3013 RMK A01 T02380169  RH  065%=      5-min Rain = 0
KBY1 111329Z 06000KT 24/17 A3013 RMK A01 T02390169  RH  065%=      5-min Rain = 0
KBY1 111330Z 00000KT 24/17 A3013 RMK A01 T02410169  RH  064%=      5-min Rain = 0
KBY1 111331Z 19000KT 24/17 A3013 RMK A01 T02430168  RH  063%=      5-min Rain = 0
KBY1 111332Z 00000KT 24/17 A3013 RMK A01 T02430167  RH  063%=      5-min Rain = 0
KBY1 111333Z 15000KT 24/17 A3013 RMK A01 T02440168  RH  063%=      5-min Rain = 0
KBY1 111334Z 19001KT 25/17 A3013 RMK A01 T02450168  RH  062%=      5-min Rain = 0
KBY1 111335Z 00000KT 25/17 A3013 RMK A01 T02460169  RH  062%=      5-min Rain = 0
KBY1 111336Z 17000KT 25/17 A3013 RMK A01 T02470168  RH  061%=      5-min Rain = 0
KBY1 111337Z 17001KT 25/17 A3013 RMK A01 T02480168  RH  061%=      5-min Rain = 0
KBY1 111338Z 19001KT 25/17 A3013 RMK A01 T02480167  RH  061%=      5-min Rain = 0
KBY1 111339Z 21002KT 25/17 A3013 RMK A01 T02480167  RH  061%=      5-min Rain = 0
KBY1 111340Z 22000KT 25/17 A3013 RMK A01 T02500170  RH  061%=      5-min Rain = 0
KBY1 111341Z 16000KT 25/17 A3013 RMK A01 T02500170  RH  061%=      5-min Rain = 0
KBY1 111342Z 19001KT 25/17 A3013 RMK A01 T02510168  RH  060%=      5-min Rain = 0
KBY1 111343Z 22001KT 25/17 A3013 RMK A01 T02520169  RH  060%=      5-min Rain = 0
KBY1 111344Z 20001KT 25/17 A3013 RMK A01 T02530169  RH  060%=      5-min Rain = 0
KBY1 111345Z 20001KT 25/17 A3013 RMK A01 T02540167  RH  059%=      5-min Rain = 0
KBY1 111346Z 20001KT 25/17 A3013 RMK A01 T02540166  RH  058%=      5-min Rain = 0
KBY1 111347Z 21003KT 26/17 A3013 RMK A01 T02550168  RH  058%=      5-min Rain = 0
KBY1 111348Z 17004KT 26/16 A3013 RMK A01 T02560164  RH  057%=      5-min Rain = 0
KBY1 111349Z 20005KT 26/16 A3013 RMK A01 T02560164  RH  057%=      5-min Rain = 0
KBY1 111350Z 19002KT 26/16 A3013 RMK A01 T02560164  RH  057%=      5-min Rain = 0
KBY1 111351Z 21004KT 26/17 A3013 RMK A01 T02560165  RH  057%=      5-min Rain = 0
KBY1 111352Z 22003KT 26/17 A3013 RMK A01 T02570167  RH  057%=      5-min Rain = 0
KBY1 111353Z 22004KT 26/17 A3013 RMK A01 T02600167  RH  057%=      5-min Rain = 0
KBY1 111354Z 22005KT 26/17 A3013 RMK A01 T02610166  RH  056%=      5-min Rain = 0
KBY1 111355Z 22006KT 26/17 A3013 RMK A01 T02630168  RH  056%=      5-min Rain = 0
KBY1 111356Z 21006KT 27/17 A3013 RMK A01 T02650166  RH  055%=      5-min Rain = 0
KBY1 111357Z 21007KT 27/17 A3013 RMK A01 T02660166  RH  054%=      5-min Rain = 0
KBY1 111358Z 23007KT 27/16 A3013 RMK A01 T02670163  RH  053%=      5-min Rain = 0
KBY1 111359Z 21010KT 27/16 A3013 RMK A01 T02670164  RH  053%=      5-min Rain = 0
KBY1 111400Z 21009KT 27/16 A3013 RMK A01 T02670162  RH  052%=      5-min Rain = 0
KBY1 111401Z 23009KT 27/17 A3013 RMK A01 T02670165  RH  053%=      5-min Rain = 0
KBY1 111402Z 22005KT 27/16 A3013 RMK A01 T02680161  RH  052%=      5-min Rain = 0
KBY1 111403Z 23007KT 27/16 A3013 RMK A01 T02680162  RH  052%=      5-min Rain = 0
KBY1 111404Z 22008KT 27/16 A3013 RMK A01 T02680162  RH  052%=      5-min Rain = 0
KBY1 111405Z 24007KT 27/16 A3013 RMK A01 T02680162  RH  052%=      5-min Rain = 0
KBY1 111406Z 23006KT 27/16 A3013 RMK A01 T02700158  RH  050%=      5-min Rain = 0
KBY1 111407Z 22007KT 27/16 A3013 RMK A01 T02710159  RH  050%=      5-min Rain = 0
KBY1 111408Z 22009KT 27/16 A3013 RMK A01 T02710161  RH  051%=      5-min Rain = 0
KBY1 111409Z 23008KT 27/16 A3013 RMK A01 T02720158  RH  050%=      5-min Rain = 0
KBY1 111410Z 22008KT 27/16 A3013 RMK A01 T02710157  RH  050%=      5-min Rain = 0
KBY1 111411Z 22009KT 27/16 A3013 RMK A01 T02720159  RH  050%=      5-min Rain = 0
KBY1 111412Z 22008KT 27/16 A3013 RMK A01 T02730162  RH  051%=      5-min Rain = 0
KBY1 111413Z 24007KT 27/16 A3013 RMK A01 T02740162  RH  050%=      5-min Rain = 0
KBY1 111414Z 24008KT 28/16 A3013 RMK A01 T02750161  RH  050%=      5-min Rain = 0
KBY1 111415Z 24007KT 28/16 A3013 RMK A01 T02770157  RH  048%=      5-min Rain = 0
KBY1 111416Z 24009KT 28/16 A3013 RMK A01 T02780157  RH  048%=      5-min Rain = 0
KBY1 111417Z 24009KT 28/16 A3013 RMK A01 T02790155  RH  047%=      5-min Rain = 0
KBY1 111418Z 25009KT 28/16 A3013 RMK A01 T02800155  RH  047%=      5-min Rain = 0
KBY1 111419Z 24010KT 28/16 A3013 RMK A01 T02790155  RH  047%=      5-min Rain = 0
KBY1 111420Z 23012KT 28/16 A3013 RMK A01 T02790155  RH  047%=      5-min Rain = 0
KBY1 111421Z 22010KT 28/15 A3013 RMK A01 T02790153  RH  046%=      5-min Rain = 0
KBY1 111422Z 23010KT 28/15 A3013 RMK A01 T02780153  RH  047%=      5-min Rain = 0
KBY1 111423Z 24013KT 28/15 A3013 RMK A01 T02780152  RH  046%=      5-min Rain = 0
KBY1 111424Z 23011KT 28/15 A3013 RMK A01 T02780152  RH  046%=      5-min Rain = 0
KBY1 111425Z 23012KT 28/15 A3013 RMK A01 T02790153  RH  046%=      5-min Rain = 0
KBY1 111426Z 24009KT 28/15 A3013 RMK A01 T02790152  RH  046%=      5-min Rain = 0
KBY1 111427Z 24010KT 28/15 A3012 RMK A01 T02800153  RH  046%=      5-min Rain = 0
KBY1 111428Z 24012KT 28/15 A3013 RMK A01 T02810154  RH  046%=      5-min Rain = 0
KBY1 111429Z 25011KT 28/15 A3013 RMK A01 T02820153  RH  045%=      5-min Rain = 0
KBY1 111430Z 23011KT 28/15 A3013 RMK A01 T02820153  RH  046%=      5-min Rain = 0
KBY1 111431Z 24012KT 28/15 A3013 RMK A01 T02810154  RH  046%=      5-min Rain = 0
KBY1 111432Z 23012KT 28/15 A3013 RMK A01 T02820154  RH  046%=      5-min Rain = 0
KBY1 111433Z 23013KT 28/16 A3013 RMK A01 T02810155  RH  046%=      5-min Rain = 0
KBY1 111434Z 24011KT 28/16 A3013 RMK A01 T02810155  RH  046%=      5-min Rain = 0
KBY1 111435Z 23013KT 28/15 A3013 RMK A01 T02810154  RH  046%=      5-min Rain = 0
KBY1 111436Z 23010KT 28/16 A3013 RMK A01 T02810155  RH  046%=      5-min Rain = 0
KBY1 111437Z 24013KT 28/16 A3013 RMK A01 T02810155  RH  046%=      5-min Rain = 0
KBY1 111438Z 24010KT 28/16 A3013 RMK A01 T02810155  RH  046%=      5-min Rain = 0
KBY1 111439Z 24009KT 28/16 A3012 RMK A01 T02820156  RH  046%=      5-min Rain = 0
KBY1 111440Z 23007KT 28/16 A3012 RMK A01 T02840159  RH  047%=      5-min Rain = 0
KBY1 111441Z 23010KT 29/16 A3012 RMK A01 T02850158  RH  046%=      5-min Rain = 0
KBY1 111442Z 22012KT 29/16 A3012 RMK A01 T02850157  RH  046%=      5-min Rain = 0
KBY1 111443Z 22011KT 28/16 A3012 RMK A01 T02840158  RH  046%=      5-min Rain = 0
KBY1 111444Z 23010KT 28/16 A3012 RMK A01 T02830157  RH  046%=      5-min Rain = 0
KBY1 111445Z 23009KT 28/16 A3012 RMK A01 T02830159  RH  047%=      5-min Rain = 0
KBY1 111446Z 23010KT 28/16 A3012 RMK A01 T02840159  RH  047%=      5-min Rain = 0
KBY1 111447Z 24013KT 29/16 A3012 RMK A01 T02860158  RH  046%=      5-min Rain = 0
KBY1 111448Z 22012KT 29/16 A3012 RMK A01 T02850158  RH  046%=      5-min Rain = 0
KBY1 111449Z 23008KT 29/16 A3013 RMK A01 T02850160  RH  047%=      5-min Rain = 0
KBY1 111450Z 24012KT 29/16 A3012 RMK A01 T02870159  RH  046%=      5-min Rain = 0
KBY1 111451Z 23011KT 29/16 A3013 RMK A01 T02870157  RH  045%=      5-min Rain = 0
KBY1 111452Z 24009KT 29/16 A3013 RMK A01 T02870158  RH  046%=      5-min Rain = 0
KBY1 111453Z 21008KT 29/16 A3013 RMK A01 T02860160  RH  046%=      5-min Rain = 0
KBY1 111454Z 21009KT 29/16 A3013 RMK A01 T02870161  RH  046%=      5-min Rain = 0
KBY1 111455Z 23009KT 29/16 A3013 RMK A01 T02870161  RH  046%=      5-min Rain = 0
KBY1 111456Z 24009KT 29/16 A3013 RMK A01 T02890159  RH  045%=      5-min Rain = 0
KBY1 111457Z 23010KT 29/16 A3013 RMK A01 T02900161  RH  046%=      5-min Rain = 0
KBY1 111458Z 23011KT 29/16 A3013 RMK A01 T02900159  RH  045%=      5-min Rain = 0
KBY1 111459Z 23011KT 29/16 A3013 RMK A01 T02890160  RH  046%=      5-min Rain = 0
KBY1 111500Z 23011KT 29/16 A3013 RMK A01 T02880159  RH  046%=      5-min Rain = 0
KBY1 111501Z 23010KT 29/16 A3013 RMK A01 T02890160  RH  046%=      5-min Rain = 0
KBY1 111502Z 24011KT 29/16 A3013 RMK A01 T02890159  RH  045%=      5-min Rain = 0
KBY1 111503Z 24011KT 29/16 A3013 RMK A01 T02890159  RH  045%=      5-min Rain = 0
KBY1 111504Z 24011KT 29/16 A3013 RMK A01 T02900159  RH  045%=      5-min Rain = 0
KBY1 111505Z 22009KT 29/16 A3013 RMK A01 T02910160  RH  045%=      5-min Rain = 0
KBY1 111506Z 23011KT 29/16 A3013 RMK A01 T02910160  RH  045%=      5-min Rain = 0
KBY1 111507Z 22008KT 29/16 A3013 RMK A01 T02900159  RH  045%=      5-min Rain = 0
KBY1 111508Z 22007KT 29/16 A3013 RMK A01 T02890161  RH  046%=      5-min Rain = 0
KBY1 111509Z 22007KT 29/16 A3013 RMK A01 T02910162  RH  046%=      5-min Rain = 0
KBY1 111510Z 20008KT 29/16 A3013 RMK A01 T02920162  RH  045%=      5-min Rain = 0
KBY1 111511Z 22008KT 29/16 A3013 RMK A01 T02930161  RH  045%=      5-min Rain = 0
KBY1 111512Z 21006G12KT 29/16 A3013 RMK A01 T02920162  RH  045%=      5-min Rain = 0
KBY1 111513Z 21010KT 29/16 A3013 RMK A01 T02930162  RH  045%=      5-min Rain = 0
KBY1 111514Z 21012KT 29/16 A3013 RMK A01 T02930162  RH  045%=      5-min Rain = 0
KBY1 111515Z 21012KT 29/16 A3013 RMK A01 T02940159  RH  044%=      5-min Rain = 0
KBY1 111516Z 22011KT 29/16 A3013 RMK A01 T02920159  RH  045%=      5-min Rain = 0
KBY1 111517Z 20011KT 29/16 A3013 RMK A01 T02910160  RH  045%=      5-min Rain = 0
KBY1 111518Z 20012KT 29/16 A3013 RMK A01 T02920161  RH  045%=      5-min Rain = 0
KBY1 111519Z 21009KT 29/16 A3013 RMK A01 T02920162  RH  045%=      5-min Rain = 0
KBY1 111520Z 21012KT 29/16 A3013 RMK A01 T02940160  RH  044%=      5-min Rain = 0
KBY1 111521Z 21011KT 29/16 A3013 RMK A01 T02940159  RH  044%=      5-min Rain = 0
KBY1 111522Z 22010KT 29/16 A3013 RMK A01 T02930161  RH  045%=      5-min Rain = 0
KBY1 111523Z 21011KT 29/16 A3013 RMK A01 T02940159  RH  044%=      5-min Rain = 0
KBY1 111524Z 21009KT 29/16 A3013 RMK A01 T02940161  RH  044%=      5-min Rain = 0
KBY1 111525Z 20010KT 29/16 A3013 RMK A01 T02940160  RH  044%=      5-min Rain = 0
KBY1 111526Z 20013KT 29/16 A3012 RMK A01 T02940160  RH  044%=      5-min Rain = 0
KBY1 111527Z 21012KT 30/16 A3012 RMK A01 T02950159  RH  044%=      5-min Rain = 0
KBY1 111528Z 21011KT 29/16 A3012 RMK A01 T02940160  RH  044%=      5-min Rain = 0
KBY1 111529Z 21012KT 29/16 A3012 RMK A01 T02930161  RH  045%=      5-min Rain = 0
KBY1 111530Z 22011KT 29/16 A3012 RMK A01 T02940162  RH  045%=      5-min Rain = 0
KBY1 111531Z 22010KT 30/16 A3012 RMK A01 T02960161  RH  044%=      5-min Rain = 0
KBY1 111532Z 21009KT 30/16 A3012 RMK A01 T02970161  RH  044%=      5-min Rain = 0
KBY1 111533Z 22011G16KT 30/16 A3012 RMK A01 T02960160  RH  044%=      5-min Rain = 0
KBY1 111534Z 22011G16KT 30/16 A3012 RMK A01 T02950160  RH  044%=      5-min Rain = 0
KBY1 111535Z 22010KT 30/16 A3012 RMK A01 T02960161  RH  044%=      5-min Rain = 0
KBY1 111536Z 23010KT 30/16 A3012 RMK A01 T02980158  RH  043%=      5-min Rain = 0
KBY1 111537Z 23011KT 30/16 A3012 RMK A01 T02970159  RH  043%=      5-min Rain = 0
KBY1 111538Z 22011KT 30/16 A3012 RMK A01 T02980160  RH  043%=      5-min Rain = 0
KBY1 111539Z 21010KT 30/16 A3012 RMK A01 T02980162  RH  044%=      5-min Rain = 0
KBY1 111540Z 22006KT 30/16 A3012 RMK A01 T02980163  RH  044%=      5-min Rain = 0
KBY1 111541Z 22006KT 30/16 A3012 RMK A01 T02990163  RH  044%=      5-min Rain = 0
KBY1 111542Z 23008KT 30/16 A3012 RMK A01 T03000161  RH  043%=      5-min Rain = 0
KBY1 111543Z 23011KT 30/16 A3012 RMK A01 T03000159  RH  042%=      5-min Rain = 0
KBY1 111544Z 22009KT 30/16 A3012 RMK A01 T03000159  RH  043%=      5-min Rain = 0
KBY1 111545Z 22010KT 30/16 A3012 RMK A01 T03000161  RH  043%=      5-min Rain = 0
KBY1 111546Z 23009KT 30/16 A3012 RMK A01 T03010162  RH  043%=      5-min Rain = 0
KBY1 111547Z 24009KT 30/16 A3012 RMK A01 T03010162  RH  043%=      5-min Rain = 0
KBY1 111548Z 21008KT 30/16 A3012 RMK A01 T03020164  RH  044%=      5-min Rain = 0
KBY1 111549Z 21008KT 30/16 A3012 RMK A01 T03040164  RH  043%=      5-min Rain = 0
KBY1 111550Z 23010G15KT 30/17 A3012 RMK A01 T03040165  RH  043%=      5-min Rain = 0
KBY1 111551Z 23011KT 31/16 A3012 RMK A01 T03050161  RH  042%=      5-min Rain = 0
KBY1 111552Z 23008KT 31/16 A3012 RMK A01 T03050160  RH  042%=      5-min Rain = 0
KBY1 111553Z 22011KT 31/16 A3012 RMK A01 T03050161  RH  042%=      5-min Rain = 0
KBY1 111554Z 21010KT 30/16 A3012 RMK A01 T03040163  RH  043%=      5-min Rain = 0
KBY1 111555Z 20011KT 30/16 A3012 RMK A01 T03040159  RH  042%=      5-min Rain = 0
KBY1 111556Z 18010KT 30/16 A3012 RMK A01 T03030159  RH  042%=      5-min Rain = 0
KBY1 111557Z 18009KT 30/16 A3012 RMK A01 T03020162  RH  043%=      5-min Rain = 0
KBY1 111558Z 19008KT 30/16 A3012 RMK A01 T03040161  RH  042%=      5-min Rain = 0
KBY1 111559Z 22008KT 30/16 A3012 RMK A01 T03040161  RH  042%=      5-min Rain = 0
KBY1 111600Z 22007KT 31/16 A3012 RMK A01 T03060163  RH  042%=      5-min Rain = 0
KBY1 111601Z 21008KT 31/17 A3012 RMK A01 T03060165  RH  043%=      5-min Rain = 0
KBY1 111602Z 21009KT 31/16 A3012 RMK A01 T03060163  RH  042%=      5-min Rain = 0
KBY1 111603Z 21010KT 31/16 A3012 RMK A01 T03070163  RH  042%=      5-min Rain = 0
KBY1 111604Z 22011KT 31/16 A3012 RMK A01 T03080160  RH  041%=      5-min Rain = 0
KBY1 111605Z 23008KT 31/16 A3012 RMK A01 T03070159  RH  041%=      5-min Rain = 0
KBY1 111606Z 23007KT 31/16 A3012 RMK A01 T03060160  RH  041%=      5-min Rain = 0
KBY1 111607Z 22011KT 31/16 A3011 RMK A01 T03070162  RH  042%=      5-min Rain = 0
KBY1 111608Z 21010KT 31/16 A3011 RMK A01 T03060160  RH  041%=      5-min Rain = 0
KBY1 111609Z 21008KT 30/16 A3011 RMK A01 T03030161  RH  042%=      5-min Rain = 0
KBY1 111610Z 20007KT 30/16 A3011 RMK A01 T03020162  RH  043%=      5-min Rain = 0
KBY1 111611Z 17008KT 30/16 A3011 RMK A01 T03030163  RH  043%=      5-min Rain = 0
KBY1 111612Z 19008KT 31/17 A3011 RMK A01 T03070166  RH  043%=      5-min Rain = 0
KBY1 111613Z 21011KT 31/16 A3011 RMK A01 T03110164  RH  041%=      5-min Rain = 0
KBY1 111614Z 20013KT 31/16 A3011 RMK A01 T03110163  RH  041%=      5-min Rain = 0
KBY1 111615Z 20012KT 31/16 A3011 RMK A01 T03080163  RH  042%=      5-min Rain = 0
KBY1 111616Z 19011KT 31/16 A3011 RMK A01 T03070163  RH  042%=      5-min Rain = 0
KBY1 111617Z 19009KT 31/16 A3011 RMK A01 T03080162  RH  042%=      5-min Rain = 0
KBY1 111618Z 20010KT 31/16 A3011 RMK A01 T03090163  RH  042%=      5-min Rain = 0
KBY1 111619Z 20008KT 31/16 A3011 RMK A01 T03100163  RH  041%=      5-min Rain = 0
KBY1 111620Z 19008KT 31/17 A3011 RMK A01 T03100165  RH  042%=      5-min Rain = 0
KBY1 111621Z 20010KT 31/16 A3011 RMK A01 T03090163  RH  041%=      5-min Rain = 0
KBY1 111622Z 19011KT 31/16 A3011 RMK A01 T03100162  RH  041%=      5-min Rain = 0
KBY1 111623Z 19010KT 31/16 A3011 RMK A01 T03100159  RH  040%=      5-min Rain = 0
KBY1 111624Z 19010KT 31/16 A3011 RMK A01 T03090161  RH  041%=      5-min Rain = 0
KBY1 111625Z 20009KT 31/16 A3011 RMK A01 T03090162  RH  041%=      5-min Rain = 0
KBY1 111626Z 20007KT 31/16 A3011 RMK A01 T03090160  RH  041%=      5-min Rain = 0
KBY1 111627Z 21008G14KT 31/16 A3011 RMK A01 T03090162  RH  041%=      5-min Rain = 0
KBY1 111628Z 22011KT 31/16 A3011 RMK A01 T03100163  RH  041%=      5-min Rain = 0
KBY1 111629Z 22011KT 31/16 A3011 RMK A01 T03110161  RH  040%=      5-min Rain = 0
KBY1 111630Z 22007KT 31/16 A3011 RMK A01 T03100156  RH  040%=      5-min Rain = 0
KBY1 111631Z 21008KT 31/16 A3011 RMK A01 T03080161  RH  041%=      5-min Rain = 0
KBY1 111632Z 20009KT 31/16 A3011 RMK A01 T03080162  RH  041%=      5-min Rain = 0
KBY1 111633Z 19008KT 31/16 A3011 RMK A01 T03110163  RH  041%=      5-min Rain = 0
KBY1 111634Z 18011KT 31/16 A3011 RMK A01 T03120162  RH  041%=      5-min Rain = 0
KBY1 111635Z 19011KT 31/16 A3011 RMK A01 T03140160  RH  040%=      5-min Rain = 0
KBY1 111636Z 19010KT 31/16 A3011 RMK A01 T03120155  RH  039%=      5-min Rain = 0
KBY1 111637Z 18010KT 31/16 A3011 RMK A01 T03110160  RH  040%=      5-min Rain = 0
KBY1 111638Z 17009KT 31/16 A3011 RMK A01 T03140157  RH  039%=      5-min Rain = 0
KBY1 111639Z 17008KT 31/16 A3011 RMK A01 T03130156  RH  039%=      5-min Rain = 0
KBY1 111640Z 17009KT 31/16 A3011 RMK A01 T03120158  RH  040%=      5-min Rain = 0
KBY1 111641Z 19011KT 31/16 A3011 RMK A01 T03130159  RH  040%=      5-min Rain = 0
KBY1 111642Z 22009KT 31/16 A3011 RMK A01 T03140158  RH  039%=      5-min Rain = 0
KBY1 111643Z 20009KT 31/16 A3011 RMK A01 T03140157  RH  039%=      5-min Rain = 0
KBY1 111644Z 20007KT 31/16 A3011 RMK A01 T03120156  RH  039%=      5-min Rain = 0
KBY1 111645Z 23013KT 31/16 A3011 RMK A01 T03110157  RH  039%=      5-min Rain = 0
KBY1 111646Z 24013G18KT 31/16 A3011 RMK A01 T03110157  RH  039%=      5-min Rain = 0
KBY1 111647Z 24010KT 31/16 A3011 RMK A01 T03130157  RH  039%=      5-min Rain = 0
KBY1 111648Z 22010KT 31/15 A3011 RMK A01 T03140154  RH  038%=      5-min Rain = 0
KBY1 111649Z 22007G12KT 31/16 A3011 RMK A01 T03140158  RH  039%=      5-min Rain = 0
KBY1 111650Z 21006KT 32/16 A3011 RMK A01 T03150156  RH  038%=      5-min Rain = 0
KBY1 111651Z 20009KT 31/16 A3011 RMK A01 T03140158  RH  039%=      5-min Rain = 0
KBY1 111652Z 20014KT 32/16 A3011 RMK A01 T03160156  RH  038%=      5-min Rain = 0
KBY1 111653Z 20013KT 32/16 A3011 RMK A01 T03170156  RH  038%=      5-min Rain = 0
KBY1 111654Z 19010KT 32/16 A3011 RMK A01 T03150155  RH  038%=      5-min Rain = 0
KBY1 111655Z 20009KT 31/15 A3011 RMK A01 T03130154  RH  038%=      5-min Rain = 0
KBY1 111656Z 19009KT 31/16 A3011 RMK A01 T03130158  RH  039%=      5-min Rain = 0
KBY1 111657Z 19007KT 31/15 A3011 RMK A01 T03140154  RH  038%=      5-min Rain = 0
KBY1 111658Z 19009KT 31/16 A3011 RMK A01 T03140157  RH  039%=      5-min Rain = 0
KBY1 111659Z 17009KT 32/16 A3011 RMK A01 T03160156  RH  038%=      5-min Rain = 0
KBY1 111700Z 18009KT 32/15 A3011 RMK A01 T03180153  RH  037%=      5-min Rain = 0
KBY1 111701Z 16009KT 32/15 A3011 RMK A01 T03200152  RH  036%=      5-min Rain = 0
KBY1 111702Z 16008KT 32/15 A3011 RMK A01 T03240149  RH  035%=      5-min Rain = 0
KBY1 111703Z 18008KT 32/15 A3011 RMK A01 T03220149  RH  035%=      5-min Rain = 0
KBY1 111704Z 17008KT 32/15 A3011 RMK A01 T03210151  RH  036%=      5-min Rain = 0
KBY1 111705Z 16012KT 32/15 A3011 RMK A01 T03220152  RH  036%=      5-min Rain = 0
KBY1 111706Z 20011KT 32/15 A3011 RMK A01 T03240152  RH  036%=      5-min Rain = 0
KBY1 111707Z 21010KT 32/15 A3011 RMK A01 T03240152  RH  035%=      5-min Rain = 0
KBY1 111708Z 22010KT 32/15 A3011 RMK A01 T03240147  RH  034%=      5-min Rain = 0
KBY1 111709Z 20008KT 32/15 A3011 RMK A01 T03230146  RH  034%=      5-min Rain = 0
KBY1 111710Z 19012KT 32/15 A3011 RMK A01 T03220150  RH  035%=      5-min Rain = 0
KBY1 111711Z 20009KT 32/15 A3011 RMK A01 T03200148  RH  035%=      5-min Rain = 0
KBY1 111712Z 20010KT 32/15 A3011 RMK A01 T03190148  RH  035%=      5-min Rain = 0
KBY1 111713Z 19010KT 32/15 A3011 RMK A01 T03190146  RH  035%=      5-min Rain = 0
KBY1 111714Z 18009KT 32/15 A3011 RMK A01 T03180145  RH  035%=      5-min Rain = 0
KBY1 111715Z 21008KT 32/14 A3011 RMK A01 T03170144  RH  035%=      5-min Rain = 0
KBY1 111716Z 24008KT 32/15 A3011 RMK A01 T03150147  RH  036%=      5-min Rain = 0
KBY1 111717Z 22011KT 32/15 A301 RMK A01 T03150149  RH  037%=      5-min Rain = 0
KBY1 111718Z 20013KT 32/15 A3011 RMK A01 T03150151  RH  037%=      5-min Rain = 0
KBY1 111719Z 20008KT 31/15 A3011 RMK A01 T03130151  RH  038%=      5-min Rain = 0
KBY1 111720Z 22007KT 31/15 A3011 RMK A01 T03110151  RH  038%=      5-min Rain = 0
KBY1 111721Z 21009G15KT 31/15 A3011 RMK A01 T03110151  RH  038%=      5-min Rain = 0
KBY1 111722Z 19012KT 32/15 A301 RMK A01 T03150153  RH  038%=      5-min Rain = 0
KBY1 111723Z 20013KT 32/16 A301 RMK A01 T03190155  RH  037%=      5-min Rain = 0
KBY1 111724Z 21011G16KT 32/16 A301 RMK A01 T03220156  RH  037%=      5-min Rain = 0
KBY1 111725Z 22009KT 33/16 A3011 RMK A01 T03260157  RH  036%=      5-min Rain = 0
KBY1 111726Z 21008KT 33/15 A3011 RMK A01 T03260148  RH  034%=      5-min Rain = 0
KBY1 111727Z 21014KT 32/15 A301 RMK A01 T03240151  RH  035%=      5-min Rain = 0
KBY1 111728Z 18010KT 32/15 A3011 RMK A01 T03230152  RH  036%=      5-min Rain = 0
KBY1 111729Z 17012KT 32/15 A3011 RMK A01 T03230153  RH  036%=      5-min Rain = 0
KBY1 111730Z 17010KT 32/15 A301 RMK A01 T03230151  RH  036%=      5-min Rain = 0
KBY1 111731Z 16007KT 32/15 A301 RMK A01 T03200150  RH  036%=      5-min Rain = 0
KBY1 111732Z 16006KT 32/15 A301 RMK A01 T03190151  RH  036%=      5-min Rain = 0
KBY1 111733Z 16011KT 32/15 A301 RMK A01 T03220150  RH  035%=      5-min Rain = 0
KBY1 111734Z 16011KT 32/15 A301 RMK A01 T03220152  RH  036%=      5-min Rain = 0
KBY1 111735Z 17012KT 32/15 A301 RMK A01 T03240153  RH  036%=      5-min Rain = 0
KBY1 111736Z 19011KT 33/15 A301 RMK A01 T03260153  RH  035%=      5-min Rain = 0
KBY1 111737Z 19007KT 33/15 A301 RMK A01 T03250154  RH  036%=      5-min Rain = 0
KBY1 111738Z 16007KT 32/16 A301 RMK A01 T03240155  RH  036%=      5-min Rain = 0
KBY1 111739Z 16008KT 33/15 A301 RMK A01 T03250152  RH  035%=      5-min Rain = 0
KBY1 111740Z 16013KT 33/15 A301 RMK A01 T03260147  RH  034%=      5-min Rain = 0
KBY1 111741Z 18012KT 33/15 A301 RMK A01 T03280150  RH  034%=      5-min Rain = 0
KBY1 111742Z 17014KT 33/15 A301 RMK A01 T03300151  RH  034%=      5-min Rain = 0
KBY1 111743Z 17013KT 33/15 A301 RMK A01 T03280151  RH  035%=      5-min Rain = 0
KBY1 111744Z 17012KT 33/15 A301 RMK A01 T03260150  RH  035%=      5-min Rain = 0
KBY1 111745Z 19010KT 33/15 A301 RMK A01 T03250151  RH  035%=      5-min Rain = 0
KBY1 111746Z 18010KT 33/15 A301 RMK A01 T03250151  RH  035%=      5-min Rain = 0
KBY1 111747Z 17013KT 33/15 A301 RMK A01 T03260150  RH  035%=      5-min Rain = 0
KBY1 111748Z 17011KT 33/15 A301 RMK A01 T03270151  RH  035%=      5-min Rain = 0
KBY1 111749Z 19011G16KT 33/15 A301 RMK A01 T03280151  RH  035%=      5-min Rain = 0
KBY1 111750Z 17015KT 33/15 A301 RMK A01 T03280150  RH  034%=      5-min Rain = 0
KBY1 111751Z 18014KT 33/15 A301 RMK A01 T03280150  RH  034%=      5-min Rain = 0
KBY1 111752Z 16010KT 33/15 A301 RMK A01 T03260148  RH  034%=      5-min Rain = 0
KBY1 111753Z 17010KT 33/15 A301 RMK A01 T03250148  RH  034%=      5-min Rain = 0
KBY1 111754Z 15012G19KT 33/15 A301 RMK A01 T03260148  RH  034%=      5-min Rain = 0
KBY1 111755Z 18015KT 33/15 A3009 RMK A01 T03260148  RH  034%=      5-min Rain = 0
KBY1 111756Z 18012KT 33/15 A301 RMK A01 T03250148  RH  034%=      5-min Rain = 0
KBY1 111757Z 19008KT 33/15 A3009 RMK A01 T03250148  RH  034%=      5-min Rain = 0
KBY1 111758Z 19009KT 33/15 A3009 RMK A01 T03250149  RH  034%=      5-min Rain = 0
KBY1 111759Z 17010KT 33/15 A3009 RMK A01 T03260149  RH  034%=      5-min Rain = 0
KBY1 111800Z 17014KT 33/15 A3009 RMK A01 T03280149  RH  034%=      5-min Rain = 0
KBY1 111801Z 16011KT 33/15 A3009 RMK A01 T03270147  RH  034%=      5-min Rain = 0
KBY1 111802Z 16014KT 33/15 A3009 RMK A01 T03270148  RH  034%=      5-min Rain = 0
KBY1 111803Z 15011KT 33/15 A3009 RMK A01 T03270145  RH  033%=      5-min Rain = 0
KBY1 111804Z 16010KT 33/15 A3009 RMK A01 T03280145  RH  033%=      5-min Rain = 0
KBY1 111805Z 15008KT 33/15 A3009 RMK A01 T03300148  RH  033%=      5-min Rain = 0
KBY1 111806Z 15009G15KT 33/15 A3009 RMK A01 T03320148  RH  033%=      5-min Rain = 0
KBY1 111807Z 16014KT 33/15 A3009 RMK A01 T03340149  RH  033%=      5-min Rain = 0
KBY1 111808Z 18009G14KT 33/15 A3009 RMK A01 T03320148  RH  033%=      5-min Rain = 0
KBY1 111809Z 19010KT 33/15 A3009 RMK A01 T03300149  RH  033%=      5-min Rain = 0
KBY1 111810Z 22013KT 33/15 A3009 RMK A01 T03290149  RH  034%=      5-min Rain = 0
KBY1 111811Z 21010G15KT 32/15 A3009 RMK A01 T03230146  RH  034%=      5-min Rain = 0
KBY1 111812Z 19009KT 32/15 A3009 RMK A01 T03200147  RH  035%=      5-min Rain = 0
KBY1 111813Z 17008KT 32/15 A3009 RMK A01 T03190148  RH  036%=      5-min Rain = 0
KBY1 111814Z 17008G13KT 32/15 A3009 RMK A01 T03210148  RH  035%=      5-min Rain = 0
KBY1 111815Z 18010KT 33/15 A3009 RMK A01 T03260152  RH  035%=      5-min Rain = 0
KBY1 111816Z 17013KT 33/15 A3009 RMK A01 T03310150  RH  033%=      5-min Rain = 0
KBY1 111817Z 16012KT 33/15 A3009 RMK A01 T03320146  RH  033%=      5-min Rain = 0
KBY1 111818Z 16010KT 33/15 A3009 RMK A01 T03290145  RH  033%=      5-min Rain = 0
KBY1 111819Z 19009KT 33/14 A3009 RMK A01 T03250144  RH  034%=      5-min Rain = 0
KBY1 111820Z 20012KT 33/15 A3009 RMK A01 T03250147  RH  034%=      5-min Rain = 0
KBY1 111821Z 20010KT 33/15 A3009 RMK A01 T03290146  RH  033%=      5-min Rain = 0
KBY1 111822Z 21013G18KT 33/15 A3008 RMK A01 T03330146  RH  032%=      5-min Rain = 0
KBY1 111823Z 18015G22KT 33/15 A3008 RMK A01 T03330147  RH  033%=      5-min Rain = 0
KBY1 111824Z 17011KT 33/15 A3009 RMK A01 T03310148  RH  033%=      5-min Rain = 0
KBY1 111825Z 17008KT 33/15 A3008 RMK A01 T03320150  RH  034%=      5-min Rain = 0
KBY1 111826Z 18011G16KT 34/15 A3008 RMK A01 T03350151  RH  033%=      5-min Rain = 0
KBY1 111827Z 19012KT 34/15 A3008 RMK A01 T03370151  RH  033%=      5-min Rain = 0
KBY1 111828Z 18015KT 33/14 A3008 RMK A01 T03310144  RH  032%=      5-min Rain = 0
KBY1 111829Z 17012KT 32/14 A3008 RMK A01 T03240143  RH  034%=      5-min Rain = 0
KBY1 111830Z 15013KT 32/15 A3008 RMK A01 T03240145  RH  034%=      5-min Rain = 0
KBY1 111831Z 15016KT 33/15 A3008 RMK A01 T03290145  RH  033%=      5-min Rain = 0
KBY1 111832Z 14013KT 33/14 A3008 RMK A01 T03310144  RH  032%=      5-min Rain = 0
KBY1 111833Z 15012KT 33/14 A3008 RMK A01 T03310144  RH  032%=      5-min Rain = 0
KBY1 111834Z 16011KT 33/15 A3008 RMK A01 T03320146  RH  033%=      5-min Rain = 0
KBY1 111835Z 17014KT 33/15 A3008 RMK A01 T03330150  RH  033%=      5-min Rain = 0
KBY1 111836Z 17013KT 33/15 A3008 RMK A01 T03310145  RH  033%=      5-min Rain = 0
KBY1 111837Z 16011KT 33/14 A3008 RMK A01 T03290144  RH  033%=      5-min Rain = 0
KBY1 111838Z 16010KT 33/15 A3008 RMK A01 T03280145  RH  033%=      5-min Rain = 0
KBY1 111839Z 17009KT 33/14 A3008 RMK A01 T03280144  RH  033%=      5-min Rain = 0
KBY1 111840Z 19012KT 33/15 A3008 RMK A01 T03300147  RH  033%=      5-min Rain = 0
KBY1 111841Z 18015KT 33/15 A3008 RMK A01 T03330146  RH  033%=      5-min Rain = 0
KBY1 111842Z 19014KT 34/14 A3008 RMK A01 T03360144  RH  031%=      5-min Rain = 0
KBY1 111843Z 18014KT 34/15 A3008 RMK A01 T03360146  RH  032%=      5-min Rain = 0
KBY1 111844Z 16012G18KT 34/15 A3008 RMK A01 T03350147  RH  032%=      5-min Rain = 0
KBY1 111845Z 16009G18KT 33/14 A3008 RMK A01 T03340141  RH  031%=      5-min Rain = 0
KBY1 111846Z 17011KT 33/14 A3008 RMK A01 T03330142  RH  032%=      5-min Rain = 0
KBY1 111847Z 17014G22KT 33/14 A3008 RMK A01 T03330144  RH  032%=      5-min Rain = 0
KBY1 111848Z 17015KT 33/14 A3008 RMK A01 T03340140  RH  031%=      5-min Rain = 0
KBY1 111849Z 17015G20KT 34/14 A3008 RMK A01 T03350139  RH  031%=      5-min Rain = 0
KBY1 111850Z 16017KT 34/14 A3008 RMK A01 T03370137  RH  030%=      5-min Rain = 0
KBY1 111851Z 15015KT 33/14 A3008 RMK A01 T03340135  RH  030%=      5-min Rain = 0
KBY1 111852Z 16014KT 33/14 A3008 RMK A01 T03340136  RH  030%=      5-min Rain = 0
KBY1 111853Z 16015G21KT 34/14 A3008 RMK A01 T03350135  RH  030%=      5-min Rain = 0
KBY1 111854Z 17013KT 33/14 A3008 RMK A01 T03340135  RH  030%=      5-min Rain = 0
KBY1 111855Z 18009KT 34/14 A3007 RMK A01 T03350139  RH  031%=      5-min Rain = 0
KBY1 111856Z 17011KT 34/14 A3007 RMK A01 T03370138  RH  030%=      5-min Rain = 0
KBY1 111857Z 17011KT 34/14 A3007 RMK A01 T03360140  RH  031%=      5-min Rain = 0
KBY1 111858Z 15011G16KT 34/14 A3007 RMK A01 T03370139  RH  030%=      5-min Rain = 0
KBY1 111859Z 16016KT 34/14 A3007 RMK A01 T03390139  RH  030%=      5-min Rain = 0
KBY1 111900Z 18015KT 34/14 A3007 RMK A01 T03380138  RH  030%=      5-min Rain = 0
KBY1 111901Z 19012KT 34/14 A3007 RMK A01 T03370138  RH  030%=      5-min Rain = 0
KBY1 111902Z 21012KT 34/14 A3007 RMK A01 T03390138  RH  030%=      5-min Rain = 0
KBY1 111903Z 20010KT 34/13 A3007 RMK A01 T03390133  RH  029%=      5-min Rain = 0
KBY1 111904Z 20012G17KT 34/14 A3007 RMK A01 T03360138  RH  030%=      5-min Rain = 0
KBY1 111905Z 21018G24KT 34/14 A3007 RMK A01 T03370138  RH  030%=      5-min Rain = 0
KBY1 111906Z 20014KT 34/14 A3007 RMK A01 T03360138  RH  030%=      5-min Rain = 0
KBY1 111907Z 17015KT 34/14 A3007 RMK A01 T03360138  RH  030%=      5-min Rain = 0
KBY1 111908Z 17011KT 34/14 A3007 RMK A01 T03360135  RH  030%=      5-min Rain = 0
KBY1 111909Z 16010G15KT 33/14 A3007 RMK A01 T03340135  RH  030%=      5-min Rain = 0
KBY1 111910Z 17010KT 34/13 A3007 RMK A01 T03350134  RH  030%=      5-min Rain = 0
KBY1 111911Z 19013G20KT 34/14 A3007 RMK A01 T03360138  RH  030%=      5-min Rain = 0
KBY1 111912Z 17016KT 34/13 A3007 RMK A01 T03370134  RH  029%=      5-min Rain = 0
KBY1 111913Z 17014KT 34/13 A3007 RMK A01 T03380133  RH  029%=      5-min Rain = 0
KBY1 111914Z 17011KT 34/13 A3007 RMK A01 T03390131  RH  028%=      5-min Rain = 0
KBY1 111915Z 15010KT 34/13 A3006 RMK A01 T03400132  RH  029%=      5-min Rain = 0
KBY1 111916Z 15011KT 34/13 A3006 RMK A01 T03420129  RH  028%=      5-min Rain = 0
KBY1 111917Z 16010KT 34/13 A3006 RMK A01 T03420131  RH  028%=      5-min Rain = 0
KBY1 111918Z 16008KT 34/13 A3006 RMK A01 T03420134  RH  029%=      5-min Rain = 0
KBY1 111919Z 16014G20KT 34/14 A3006 RMK A01 T03430137  RH  029%=      5-min Rain = 0
KBY1 111920Z 16014KT 34/13 A3006 RMK A01 T03420133  RH  028%=      5-min Rain = 0
KBY1 111921Z 15014G19KT 34/13 A3006 RMK A01 T03390134  RH  029%=      5-min Rain = 0
KBY1 111922Z 15012KT 34/14 A3006 RMK A01 T03380135  RH  029%=      5-min Rain = 0
KBY1 111923Z 15011KT 34/13 A3006 RMK A01 T03390134  RH  029%=      5-min Rain = 0
KBY1 111924Z 16012KT 34/14 A3006 RMK A01 T03380135  RH  029%=      5-min Rain = 0
KBY1 111925Z 15009KT 34/14 A3006 RMK A01 T03370138  RH  030%=      5-min Rain = 0
KBY1 111926Z 16013G19KT 34/14 A3006 RMK A01 T03430140  RH  029%=      5-min Rain = 0
KBY1 111927Z 17012G17KT 35/14 A3006 RMK A01 T03460139  RH  029%=      5-min Rain = 0
KBY1 111928Z 16013KT 35/14 A3006 RMK A01 T03460139  RH  029%=      5-min Rain = 0
KBY1 111929Z 16012G17KT 35/14 A3006 RMK A01 T03450135  RH  028%=      5-min Rain = 0
KBY1 111930Z 16010KT 34/14 A3006 RMK A01 T03420135  RH  029%=      5-min Rain = 0
KBY1 111931Z 15017G22KT 34/14 A3006 RMK A01 T03410136  RH  029%=      5-min Rain = 0
KBY1 111932Z 18010KT 34/14 A3006 RMK A01 T03440137  RH  029%=      5-min Rain = 0
KBY1 111933Z 17013G18KT 34/14 A3006 RMK A01 T03440136  RH  029%=      5-min Rain = 0
KBY1 111934Z 19018KT 34/14 A3005 RMK A01 T03420135  RH  029%=      5-min Rain = 0
KBY1 111935Z 18015KT 34/13 A3006 RMK A01 T03400133  RH  029%=      5-min Rain = 0
KBY1 111936Z 18011KT 34/13 A3005 RMK A01 T03390131  RH  028%=      5-min Rain = 0
KBY1 111937Z 17010KT 34/13 A3005 RMK A01 T03380130  RH  029%=      5-min Rain = 0
KBY1 111938Z 18008KT 34/13 A3005 RMK A01 T03370134  RH  029%=      5-min Rain = 0
KBY1 111939Z 19011KT 34/14 A3005 RMK A01 T03400138  RH  030%=      5-min Rain = 0
KBY1 111940Z 17012G17KT 34/14 A3005 RMK A01 T03390138  RH  030%=      5-min Rain = 0
KBY1 111941Z 18012KT 34/13 A3005 RMK A01 T03350134  RH  030%=      5-min Rain = 0
KBY1 111942Z 16009KT 33/13 A3005 RMK A01 T03330133  RH  030%=      5-min Rain = 0
KBY1 111943Z 18012G20KT 33/13 A3005 RMK A01 T03340133  RH  030%=      5-min Rain = 0
KBY1 111944Z 17015G21KT 34/13 A3005 RMK A01 T03380134  RH  029%=      5-min Rain = 0
KBY1 111945Z 18016KT 34/14 A3005 RMK A01 T03410135  RH  029%=      5-min Rain = 0
KBY1 111946Z 18015KT 34/14 A3005 RMK A01 T03400135  RH  029%=      5-min Rain = 0
KBY1 111947Z 20013KT 34/13 A3005 RMK A01 T03400134  RH  029%=      5-min Rain = 0
KBY1 111948Z 19015KT 34/13 A3005 RMK A01 T03380133  RH  029%=      5-min Rain = 0
KBY1 111949Z 18012KT 34/13 A3005 RMK A01 T03380134  RH  029%=      5-min Rain = 0
KBY1 111950Z 16011KT 34/13 A3005 RMK A01 T03400132  RH  029%=      5-min Rain = 0
KBY1 111951Z 17011G16KT 34/13 A3005 RMK A01 T03410133  RH  028%=      5-min Rain = 0
KBY1 111952Z 19014G21KT 34/14 A3005 RMK A01 T03430137  RH  029%=      5-min Rain = 0
KBY1 111953Z 18015G22KT 34/13 A3005 RMK A01 T03440133  RH  028%=      5-min Rain = 0
KBY1 111954Z 18014KT 34/13 A3005 RMK A01 T03420130  RH  028%=      5-min Rain = 0
KBY1 111955Z 19014KT 34/13 A3005 RMK A01 T03390131  RH  028%=      5-min Rain = 0
KBY1 111956Z 18014KT 34/13 A3005 RMK A01 T03370133  RH  029%=      5-min Rain = 0
KBY1 111957Z 18014KT 34/13 A3004 RMK A01 T03370133  RH  029%=      5-min Rain = 0
KBY1 111958Z 16011KT 34/13 A3004 RMK A01 T03390134  RH  029%=      5-min Rain = 0
KBY1 111959Z 19013KT 34/14 A3004 RMK A01 T03420136  RH  029%=      5-min Rain = 0
KBY1 112000Z 18013KT 34/13 A3004 RMK A01 T03440133  RH  028%=      5-min Rain = 0
KBY1 112001Z 18011KT 34/13 A3004 RMK A01 T03440132  RH  028%=      5-min Rain = 0
KBY1 112002Z 18014KT 34/13 A3004 RMK A01 T03440130  RH  028%=      5-min Rain = 0
KBY1 112003Z 17013KT 34/13 A3004 RMK A01 T03420128  RH  028%=      5-min Rain = 0
KBY1 112004Z 17012KT 34/13 A3004 RMK A01 T03410133  RH  028%=      5-min Rain = 0
KBY1 112005Z 18013G18KT 34/14 A3004 RMK A01 T03430136  RH  029%=      5-min Rain = 0
KBY1 112006Z 17015G20KT 34/14 A3004 RMK A01 T03440135  RH  029%=      5-min Rain = 0
KBY1 112007Z 18013KT 34/14 A3004 RMK A01 T03430135  RH  028%=      5-min Rain = 0
KBY1 112008Z 18009KT 34/14 A3004 RMK A01 T03400135  RH  029%=      5-min Rain = 0
KBY1 112009Z 14011G18KT 34/14 A3004 RMK A01 T03430138  RH  029%=      5-min Rain = 0
KBY1 112010Z 14018KT 35/14 A3004 RMK A01 T03480137  RH  028%=      5-min Rain = 0
KBY1 112011Z 17013G18KT 35/14 A3004 RMK A01 T03450136  RH  028%=      5-min Rain = 0
KBY1 112012Z 16009KT 34/14 A3004 RMK A01 T03420138  RH  029%=      5-min Rain = 0
KBY1 112013Z 15015G22KT 34/14 A3004 RMK A01 T03430136  RH  029%=      5-min Rain = 0
KBY1 112014Z 15018KT 34/14 A3004 RMK A01 T03420137  RH  029%=      5-min Rain = 0
KBY1 112015Z 16013KT 34/14 A3004 RMK A01 T03410140  RH  030%=      5-min Rain = 0
KBY1 112016Z 18013KT 34/14 A3004 RMK A01 T03430140  RH  030%=      5-min Rain = 0
KBY1 112017Z 18013KT 34/14 A3004 RMK A01 T03430140  RH  030%=      5-min Rain = 0
KBY1 112018Z 18011KT 34/14 A3004 RMK A01 T03420139  RH  030%=      5-min Rain = 0
KBY1 112019Z 16009G15KT 34/14 A3004 RMK A01 T03420141  RH  030%=      5-min Rain = 0
KBY1 112020Z 14013G19KT 34/14 A3004 RMK A01 T03440138  RH  029%=      5-min Rain = 0
KBY1 112021Z 16013KT 34/14 A3003 RMK A01 T03440140  RH  029%=      5-min Rain = 0
KBY1 112022Z 18014KT 35/14 A3004 RMK A01 T03470141  RH  029%=      5-min Rain = 0
KBY1 112023Z 16016KT 35/14 A3003 RMK A01 T03470138  RH  029%=      5-min Rain = 0
KBY1 112024Z 17016G22KT 35/14 A3003 RMK A01 T03460136  RH  028%=      5-min Rain = 0
KBY1 112025Z 18010KT 34/14 A3003 RMK A01 T03440136  RH  029%=      5-min Rain = 0
KBY1 112026Z 18009KT 35/14 A3003 RMK A01 T03450139  RH  029%=      5-min Rain = 0
KBY1 112027Z 17013G19KT 35/14 A3003 RMK A01 T03470140  RH  029%=      5-min Rain = 0
KBY1 112028Z 19013KT 35/14 A3003 RMK A01 T03500139  RH  028%=      5-min Rain = 0
KBY1 112029Z 19012KT 35/14 A3003 RMK A01 T03490138  RH  028%=      5-min Rain = 0
KBY1 112030Z 19014KT 35/14 A3003 RMK A01 T03480136  RH  028%=      5-min Rain = 0
KBY1 112031Z 18015KT 35/14 A3003 RMK A01 T03450136  RH  028%=      5-min Rain = 0
KBY1 112032Z 17014G19KT 35/14 A3003 RMK A01 T03450136  RH  028%=      5-min Rain = 0
KBY1 112033Z 17012KT 35/14 A3003 RMK A01 T03450136  RH  029%=      5-min Rain = 0
KBY1 112034Z 17010KT 34/13 A3003 RMK A01 T03430133  RH  028%=      5-min Rain = 0
KBY1 112035Z 15010KT 34/13 A3003 RMK A01 T03400133  RH  029%=      5-min Rain = 0
KBY1 112036Z 16010KT 34/13 A3003 RMK A01 T03400133  RH  029%=      5-min Rain = 0
KBY1 112037Z 17017KT 34/14 A3003 RMK A01 T03410136  RH  029%=      5-min Rain = 0
KBY1 112038Z 16015KT 34/14 A3003 RMK A01 T03420137  RH  029%=      5-min Rain = 0
KBY1 112039Z 16015KT 34/14 A3003 RMK A01 T03430136  RH  029%=      5-min Rain = 0
KBY1 112040Z 16015KT 34/14 A3003 RMK A01 T03430137  RH  029%=      5-min Rain = 0
KBY1 112041Z 16014KT 34/14 A3003 RMK A01 T03440136  RH  029%=      5-min Rain = 0
KBY1 112042Z 17014KT 35/14 A3003 RMK A01 T03450135  RH  028%=      5-min Rain = 0
KBY1 112043Z 16014KT 35/14 A3003 RMK A01 T03450138  RH  029%=      5-min Rain = 0
KBY1 112044Z 17017KT 35/14 A3003 RMK A01 T03460136  RH  028%=      5-min Rain = 0
KBY1 112045Z 17013KT 34/14 A3003 RMK A01 T03440138  RH  029%=      5-min Rain = 0
KBY1 112046Z 17012KT 34/14 A3003 RMK A01 T03430137  RH  029%=      5-min Rain = 0
KBY1 112047Z 17011KT 34/14 A3003 RMK A01 T03390137  RH  030%=      5-min Rain = 0
KBY1 112048Z 18011KT 34/14 A3003 RMK A01 T03360135  RH  030%=      5-min Rain = 0
KBY1 112049Z 18007KT 33/14 A3003 RMK A01 T03320135  RH  030%=      5-min Rain = 0
KBY1 112050Z 17011KT 33/14 A3003 RMK A01 T03310135  RH  031%=      5-min Rain = 0
KBY1 112051Z 17012KT 33/14 A3003 RMK A01 T03300135  RH  031%=      5-min Rain = 0
KBY1 112052Z 17014KT 33/14 A3003 RMK A01 T03340136  RH  030%=      5-min Rain = 0
KBY1 112053Z 17016G21KT 34/13 A3003 RMK A01 T03400134  RH  029%=      5-min Rain = 0
KBY1 112054Z 16013KT 34/13 A3002 RMK A01 T03400133  RH  029%=      5-min Rain = 0
KBY1 112055Z 16015KT 34/14 A3003 RMK A01 T03420135  RH  029%=      5-min Rain = 0
KBY1 112056Z 15014KT 34/13 A3002 RMK A01 T03420132  RH  028%=      5-min Rain = 0
KBY1 112057Z 15012KT 34/13 A3002 RMK A01 T03420133  RH  028%=      5-min Rain = 0
KBY1 112058Z 18010KT 35/14 A3002 RMK A01 T03450139  RH  029%=      5-min Rain = 0
KBY1 112059Z 16010KT 35/14 A3002 RMK A01 T03480142  RH  029%=      5-min Rain = 0
KBY1 112100Z 15010KT 35/14 A3002 RMK A01 T03490140  RH  028%=      5-min Rain = 0
KBY1 112101Z 16009KT 35/14 A3002 RMK A01 T03490141  RH  029%=      5-min Rain = 0
KBY1 112102Z 16013KT 35/14 A3002 RMK A01 T03490142  RH  029%=      5-min Rain = 0
KBY1 112103Z 17012KT 35/14 A3002 RMK A01 T03450139  RH  029%=      5-min Rain = 0
KBY1 112104Z 18012KT 34/14 A3002 RMK A01 T03420140  RH  030%=      5-min Rain = 0
KBY1 112105Z 16012KT 34/14 A3002 RMK A01 T03400138  RH  030%=      5-min Rain = 0
KBY1 112106Z 15016KT 34/14 A3002 RMK A01 T03370136  RH  030%=      5-min Rain = 0
KBY1 112107Z 17011G17KT 34/14 A3002 RMK A01 T03360136  RH  030%=      5-min Rain = 0
KBY1 112108Z 19016KT 34/14 A3002 RMK A01 T03360136  RH  030%=      5-min Rain = 0
KBY1 112109Z 19011KT 34/14 A3002 RMK A01 T03380137  RH  030%=      5-min Rain = 0
KBY1 112110Z 20011KT 34/14 A3002 RMK A01 T03410137  RH  029%=      5-min Rain = 0
KBY1 112111Z 18007KT 34/13 A3002 RMK A01 T03390133  RH  029%=      5-min Rain = 0
KBY1 112112Z 18007KT 34/13 A3002 RMK A01 T03360134  RH  030%=      5-min Rain = 0
KBY1 112113Z 17011KT 34/14 A3002 RMK A01 T03390140  RH  030%=      5-min Rain = 0
KBY1 112114Z 16011KT 34/14 A3002 RMK A01 T03440138  RH  029%=      5-min Rain = 0
KBY1 112115Z 17012KT 34/14 A3001 RMK A01 T03430138  RH  029%=      5-min Rain = 0
KBY1 112116Z 15012KT 35/14 A3002 RMK A01 T03450143  RH  030%=      5-min Rain = 0
KBY1 112117Z 16010KT 35/14 A3002 RMK A01 T03470139  RH  029%=      5-min Rain = 0
KBY1 112118Z 16008KT 35/14 A3001 RMK A01 T03460140  RH  029%=      5-min Rain = 0
KBY1 112119Z 16008KT 35/14 A3001 RMK A01 T03470140  RH  029%=      5-min Rain = 0
KBY1 112120Z 16011KT 35/14 A3001 RMK A01 T03470140  RH  029%=      5-min Rain = 0
KBY1 112121Z 17014KT 35/14 A3001 RMK A01 T03470140  RH  029%=      5-min Rain = 0
KBY1 112122Z 18012KT 35/14 A3001 RMK A01 T03470144  RH  030%=      5-min Rain = 0
KBY1 112123Z 18010KT 35/15 A3001 RMK A01 T03500145  RH  029%=      5-min Rain = 0
KBY1 112124Z 18006KT 35/14 A3001 RMK A01 T03510141  RH  028%=      5-min Rain = 0
KBY1 112125Z 20006KT 35/15 A3001 RMK A01 T03510147  RH  029%=      5-min Rain = 0
KBY1 112126Z 19006KT 35/14 A3001 RMK A01 T03530143  RH  029%=      5-min Rain = 0
KBY1 112127Z 21010G15KT 35/14 A3001 RMK A01 T03530143  RH  028%=      5-min Rain = 0
KBY1 112128Z 21013KT 35/14 A3001 RMK A01 T03520142  RH  028%=      5-min Rain = 0
KBY1 112129Z 19011KT 35/14 A3001 RMK A01 T03510142  RH  028%=      5-min Rain = 0
KBY1 112130Z 17010KT 35/14 A3001 RMK A01 T03500141  RH  029%=      5-min Rain = 0
KBY1 112131Z 16013KT 35/14 A3001 RMK A01 T03500144  RH  029%=      5-min Rain = 0
KBY1 112132Z 15016G23KT 35/14 A3001 RMK A01 T03510142  RH  029%=      5-min Rain = 0
KBY1 112133Z 17017G25KT 35/14 A3001 RMK A01 T03470140  RH  029%=      5-min Rain = 0
KBY1 112134Z 17014KT 34/14 A3001 RMK A01 T03420140  RH  030%=      5-min Rain = 0
KBY1 112135Z 17014KT 34/14 A3001 RMK A01 T03400138  RH  030%=      5-min Rain = 0
KBY1 112136Z 16012KT 34/14 A3001 RMK A01 T03380137  RH  030%=      5-min Rain = 0
KBY1 112137Z 16011KT 34/13 A30 RMK A01 T03380134  RH  029%=      5-min Rain = 0
KBY1 112138Z 16013KT 34/14 A30 RMK A01 T03410137  RH  029%=      5-min Rain = 0
KBY1 112139Z 16018KT 35/14 A30 RMK A01 T03460138  RH  029%=      5-min Rain = 0
KBY1 112140Z 19015KT 35/14 A30 RMK A01 T03490141  RH  029%=      5-min Rain = 0
KBY1 112141Z 20013KT 35/14 A30 RMK A01 T03500139  RH  028%=      5-min Rain = 0
KBY1 112142Z 19011KT 35/14 A30 RMK A01 T03480139  RH  029%=      5-min Rain = 0
KBY1 112143Z 19008KT 35/14 A30 RMK A01 T03470142  RH  029%=      5-min Rain = 0
KBY1 112144Z 18009KT 35/14 A30 RMK A01 T03500142  RH  029%=      5-min Rain = 0
KBY1 112145Z 19010KT 35/14 A30 RMK A01 T03540144  RH  029%=      5-min Rain = 0
KBY1 112146Z 18010KT 36/14 A30 RMK A01 T03570143  RH  028%=      5-min Rain = 0
KBY1 112147Z 21010KT 35/14 A30 RMK A01 T03540143  RH  028%=      5-min Rain = 0
KBY1 112148Z 19011G18KT 35/14 A30 RMK A01 T03510142  RH  029%=      5-min Rain = 0
KBY1 112149Z 16010KT 35/14 A30 RMK A01 T03500141  RH  029%=      5-min Rain = 0
KBY1 112150Z 19011G17KT 35/14 A30 RMK A01 T03510144  RH  029%=      5-min Rain = 0
KBY1 112151Z 18015KT 36/14 A30 RMK A01 T03550144  RH  028%=      5-min Rain = 0
KBY1 112152Z 17013KT 35/14 A30 RMK A01 T03540144  RH  028%=      5-min Rain = 0
KBY1 112153Z 16012KT 35/14 A30 RMK A01 T03540141  RH  028%=      5-min Rain = 0
KBY1 112154Z 16012G19KT 35/14 A30 RMK A01 T03530142  RH  028%=      5-min Rain = 0
KBY1 112155Z 17013G19KT 35/14 A30 RMK A01 T03520144  RH  029%=      5-min Rain = 0
KBY1 112156Z 17014KT 35/14 A30 RMK A01 T03500141  RH  029%=      5-min Rain = 0
KBY1 112157Z 18014KT 35/14 A30 RMK A01 T03450139  RH  029%=      5-min Rain = 0
KBY1 112158Z 16013KT 34/14 A30 RMK A01 T03410137  RH  029%=      5-min Rain = 0
KBY1 112159Z 16010KT 34/14 A30 RMK A01 T03380136  RH  030%=      5-min Rain = 0
KBY1 112200Z 14012G21KT 34/14 A30 RMK A01 T03360135  RH  030%=      5-min Rain = 0
KBY1 112201Z 15014G22KT 34/14 A30 RMK A01 T03360135  RH  030%=      5-min Rain = 0
KBY1 112202Z 16013KT 34/14 A30 RMK A01 T03360136  RH  030%=      5-min Rain = 0
KBY1 112203Z 16008KT 34/14 A30 RMK A01 T03350135  RH  030%=      5-min Rain = 0
KBY1 112204Z 15011KT 34/14 A30 RMK A01 T03360135  RH  030%=      5-min Rain = 0
KBY1 112205Z 15010KT 34/13 A30 RMK A01 T03370134  RH  029%=      5-min Rain = 0
KBY1 112206Z 19010KT 34/14 A30 RMK A01 T03370135  RH  030%=      5-min Rain = 0
KBY1 112207Z 19016KT 34/14 A30 RMK A01 T03360138  RH  030%=      5-min Rain = 0
KBY1 112208Z 18014KT 34/14 A30 RMK A01 T03350136  RH  030%=      5-min Rain = 0
KBY1 112209Z 18015G21KT 33/14 A30 RMK A01 T03340135  RH  030%=      5-min Rain = 0
KBY1 112210Z 19012KT 33/14 A30 RMK A01 T03330136  RH  030%=      5-min Rain = 0
KBY1 112211Z 20014KT 34/14 A30 RMK A01 T03350138  RH  030%=      5-min Rain = 0
KBY1 112212Z 18014KT 34/14 A30 RMK A01 T03400137  RH  029%=      5-min Rain = 0
KBY1 112213Z 19014KT 34/14 A30 RMK A01 T03440138  RH  029%=      5-min Rain = 0
KBY1 112214Z 20011G16KT 35/14 A30 RMK A01 T03450139  RH  029%=      5-min Rain = 0
KBY1 112215Z 20012KT 35/14 A2999 RMK A01 T03470140  RH  029%=      5-min Rain = 0
KBY1 112216Z 18014KT 35/14 A30 RMK A01 T03480139  RH  029%=      5-min Rain = 0
KBY1 112217Z 19018KT 35/14 A2999 RMK A01 T03480140  RH  029%=      5-min Rain = 0
KBY1 112218Z 19015KT 35/14 A30 RMK A01 T03480140  RH  029%=      5-min Rain = 0
KBY1 112219Z 19016G21KT 35/14 A2999 RMK A01 T03470140  RH  029%=      5-min Rain = 0
KBY1 112220Z 19015KT 35/14 A30 RMK A01 T03470139  RH  029%=      5-min Rain = 0
KBY1 112221Z 19015KT 35/14 A2999 RMK A01 T03470139  RH  029%=      5-min Rain = 0
KBY1 112222Z 18015KT 35/14 A30 RMK A01 T03480138  RH  028%=      5-min Rain = 0
KBY1 112223Z 17012KT 35/14 A2999 RMK A01 T03470138  RH  028%=      5-min Rain = 0
KBY1 112224Z 16013KT 35/14 A2999 RMK A01 T03480139  RH  029%=      5-min Rain = 0
KBY1 112225Z 17012KT 35/14 A2999 RMK A01 T03500140  RH  028%=      5-min Rain = 0
KBY1 112226Z 18012G17KT 35/14 A2999 RMK A01 T03500139  RH  028%=      5-min Rain = 0
KBY1 112227Z 19010KT 35/14 A2999 RMK A01 T03490143  RH  029%=      5-min Rain = 0
KBY1 112228Z 20013KT 35/14 A2999 RMK A01 T03510143  RH  029%=      5-min Rain = 0
KBY1 112229Z 20014KT 35/14 A2999 RMK A01 T03510140  RH  028%=      5-min Rain = 0
KBY1 112230Z 19011KT 35/14 A2999 RMK A01 T03490141  RH  029%=      5-min Rain = 0
KBY1 112231Z 18016KT 35/14 A2999 RMK A01 T03460139  RH  029%=      5-min Rain = 0
KBY1 112232Z 19017KT 34/14 A2999 RMK A01 T03430138  RH  029%=      5-min Rain = 0
KBY1 112233Z 19015KT 34/14 A2999 RMK A01 T03400138  RH  030%=      5-min Rain = 0
KBY1 112234Z 18013KT 34/14 A2999 RMK A01 T03380137  RH  030%=      5-min Rain = 0
KBY1 112235Z 17010KT 34/14 A2999 RMK A01 T03390137  RH  030%=      5-min Rain = 0
KBY1 112236Z 18012KT 34/14 A2999 RMK A01 T03420137  RH  029%=      5-min Rain = 0
KBY1 112237Z 19011KT 34/14 A2999 RMK A01 T03440138  RH  029%=      5-min Rain = 0
KBY1 112238Z 18010KT 35/14 A2999 RMK A01 T03470139  RH  029%=      5-min Rain = 0
KBY1 112239Z 17014KT 35/14 A2999 RMK A01 T03480136  RH  028%=      5-min Rain = 0
KBY1 112240Z 18011KT 35/14 A2999 RMK A01 T03470137  RH  028%=      5-min Rain = 0
KBY1 112241Z 18011KT 35/14 A2999 RMK A01 T03470139  RH  029%=      5-min Rain = 0
KBY1 112242Z 19016KT 35/14 A2999 RMK A01 T03490140  RH  029%=      5-min Rain = 0
KBY1 112243Z 19015KT 35/14 A2999 RMK A01 T03490139  RH  028%=      5-min Rain = 0
KBY1 112244Z 19013KT 35/14 A2999 RMK A01 T03490140  RH  029%=      5-min Rain = 0
KBY1 112245Z 18012KT 35/14 A2999 RMK A01 T03480139  RH  029%=      5-min Rain = 0
KBY1 112246Z 20016KT 35/14 A2999 RMK A01 T03490138  RH  028%=      5-min Rain = 0
KBY1 112247Z 19014KT 35/14 A2999 RMK A01 T03470137  RH  028%=      5-min Rain = 0
KBY1 112248Z 18014KT 35/14 A2999 RMK A01 T03460136  RH  028%=      5-min Rain = 0
KBY1 112249Z 18013KT 34/14 A2999 RMK A01 T03430135  RH  029%=      5-min Rain = 0
KBY1 112250Z 19012KT 34/14 A2999 RMK A01 T03400138  RH  030%=      5-min Rain = 0
KBY1 112251Z 19013KT 34/14 A2999 RMK A01 T03380136  RH  030%=      5-min Rain = 0
KBY1 112252Z 18013KT 34/14 A2999 RMK A01 T03360136  RH  030%=      5-min Rain = 0
KBY1 112253Z 18013G20KT 34/14 A2999 RMK A01 T03360136  RH  030%=      5-min Rain = 0
KBY1 112254Z 19015KT 34/14 A2999 RMK A01 T03380137  RH  030%=      5-min Rain = 0
KBY1 112255Z 18013KT 34/14 A2999 RMK A01 T03380135  RH  030%=      5-min Rain = 0
KBY1 112256Z 18012KT 34/14 A2999 RMK A01 T03360135  RH  030%=      5-min Rain = 0
KBY1 112257Z 19010KT 34/14 A2999 RMK A01 T03360135  RH  030%=      5-min Rain = 0
KBY1 112258Z 19010G15KT 34/14 A2999 RMK A01 T03350137  RH  030%=      5-min Rain = 0
KBY1 112259Z 18012KT 34/14 A2999 RMK A01 T03350136  RH  030%=      5-min Rain = 0
KBY1 112300Z 18009KT 34/14 A2999 RMK A01 T03350137  RH  030%=      5-min Rain = 0
KBY1 112301Z 18009KT 34/14 A2999 RMK A01 T03380138  RH  030%=      5-min Rain = 0
KBY1 112302Z 17016G21KT 34/14 A2999 RMK A01 T03430138  RH  029%=      5-min Rain = 0
KBY1 112303Z 18015KT 34/14 A2999 RMK A01 T03440137  RH  029%=      5-min Rain = 0
KBY1 112304Z 18013KT 34/14 A2999 RMK A01 T03430137  RH  029%=      5-min Rain = 0
KBY1 112305Z 18011KT 34/14 A2999 RMK A01 T03430139  RH  029%=      5-min Rain = 0
KBY1 112306Z 18013KT 34/14 A2999 RMK A01 T03440139  RH  029%=      5-min Rain = 0
KBY1 112307Z 18015G22KT 35/14 A2999 RMK A01 T03460139  RH  029%=      5-min Rain = 0
KBY1 112308Z 19014KT 34/14 A2999 RMK A01 T03440138  RH  029%=      5-min Rain = 0
KBY1 112309Z 18014KT 34/14 A2999 RMK A01 T03430139  RH  029%=      5-min Rain = 0
KBY1 112310Z 17014KT 34/14 A2999 RMK A01 T03410137  RH  029%=      5-min Rain = 0
KBY1 112311Z 17012G17KT 34/14 A2999 RMK A01 T03390138  RH  030%=      5-min Rain = 0
KBY1 112312Z 17012KT 34/14 A2999 RMK A01 T03370137  RH  030%=      5-min Rain = 0
KBY1 112313Z 16012KT 34/14 A2999 RMK A01 T03350136  RH  030%=      5-min Rain = 0
KBY1 112314Z 16014KT 33/14 A2999 RMK A01 T03340135  RH  030%=      5-min Rain = 0
KBY1 112315Z 18013KT 33/13 A2999 RMK A01 T03330134  RH  030%=      5-min Rain = 0
KBY1 112316Z 19011KT 33/13 A2999 RMK A01 T03310134  RH  030%=      5-min Rain = 0
KBY1 112317Z 19012KT 33/14 A2999 RMK A01 T03310135  RH  031%=      5-min Rain = 0
KBY1 112318Z 19012KT 33/13 A2999 RMK A01 T03300134  RH  031%=      5-min Rain = 0
KBY1 112319Z 19011KT 33/13 A2999 RMK A01 T03300133  RH  030%=      5-min Rain = 0
KBY1 112320Z 19010KT 33/13 A2999 RMK A01 T03300134  RH  031%=      5-min Rain = 0
KBY1 112321Z 19010KT 33/14 A2999 RMK A01 T03300135  RH  031%=      5-min Rain = 0
KBY1 112322Z 19010KT 33/14 A2999 RMK A01 T03290135  RH  031%=      5-min Rain = 0
KBY1 112323Z 20011KT 33/14 A2999 RMK A01 T03290135  RH  031%=      5-min Rain = 0
KBY1 112324Z 19012KT 33/13 A2999 RMK A01 T03290134  RH  031%=      5-min Rain = 0
KBY1 112325Z 18010KT 33/14 A2999 RMK A01 T03280135  RH  031%=      5-min Rain = 0
KBY1 112326Z 17010KT 33/14 A2999 RMK A01 T03280135  RH  031%=      5-min Rain = 0
KBY1 112327Z 19010KT 33/14 A2999 RMK A01 T03290136  RH  031%=      5-min Rain = 0
KBY1 112328Z 19008KT 33/14 A30 RMK A01 T03300137  RH  031%=      5-min Rain = 0
KBY1 112329Z 18008G14KT 33/14 A30 RMK A01 T03300138  RH  031%=      5-min Rain = 0
KBY1 112330Z 17012KT 33/14 A30 RMK A01 T03310137  RH  031%=      5-min Rain = 0
KBY1 112331Z 18012KT 33/14 A2999 RMK A01 T03300135  RH  031%=      5-min Rain = 0
KBY1 112332Z 18012KT 33/13 A2999 RMK A01 T03300134  RH  031%=      5-min Rain = 0
KBY1 112333Z 17008KT 33/13 A2999 RMK A01 T03290134  RH  031%=      5-min Rain = 0
KBY1 112334Z 18013KT 33/14 A2999 RMK A01 T03300135  RH  031%=      5-min Rain = 0
KBY1 112335Z 19011KT 33/13 A2999 RMK A01 T03290134  RH  031%=      5-min Rain = 0
KBY1 112336Z 19009KT 33/14 A2999 RMK A01 T03290136  RH  031%=      5-min Rain = 0
KBY1 112337Z 18010KT 33/14 A2999 RMK A01 T03290136  RH  031%=      5-min Rain = 0
KBY1 112338Z 18011KT 33/14 A2999 RMK A01 T03280135  RH  031%=      5-min Rain = 0
KBY1 112339Z 19012G17KT 33/14 A2999 RMK A01 T03280135  RH  031%=      5-min Rain = 0
KBY1 112340Z 19012KT 33/14 A2999 RMK A01 T03280135  RH  031%=      5-min Rain = 0
KBY1 112341Z 19012KT 33/13 A2999 RMK A01 T03280134  RH  031%=      5-min Rain = 0
KBY1 112342Z 19010KT 33/13 A30 RMK A01 T03290134  RH  031%=      5-min Rain = 0
KBY1 112343Z 18010G15KT 33/13 A30 RMK A01 T03290134  RH  031%=      5-min Rain = 0
KBY1 112344Z 19015KT 33/13 A30 RMK A01 T03300134  RH  030%=      5-min Rain = 0
KBY1 112345Z 19011KT 33/14 A30 RMK A01 T03320136  RH  030%=      5-min Rain = 0
KBY1 112346Z 19008KT 33/14 A30 RMK A01 T03330137  RH  031%=      5-min Rain = 0
KBY1 112347Z 17009KT 33/14 A30 RMK A01 T03330137  RH  031%=      5-min Rain = 0
KBY1 112348Z 19011KT 33/14 A30 RMK A01 T03330137  RH  031%=      5-min Rain = 0
KBY1 112349Z 20011KT 33/14 A30 RMK A01 T03330137  RH  031%=      5-min Rain = 0
KBY1 112350Z 18012KT 33/14 A30 RMK A01 T03340136  RH  030%=      5-min Rain = 0
KBY1 112351Z 19012KT 33/14 A30 RMK A01 T03340136  RH  030%=      5-min Rain = 0
KBY1 112352Z 19012KT 34/14 A30 RMK A01 T03360137  RH  030%=      5-min Rain = 0
KBY1 112353Z 17009KT 34/14 A30 RMK A01 T03370139  RH  030%=      5-min Rain = 0
KBY1 112354Z 17008KT 34/14 A30 RMK A01 T03380139  RH  030%=      5-min Rain = 0
KBY1 112355Z 17011KT 34/14 A30 RMK A01 T03390139  RH  030%=      5-min Rain = 0
KBY1 112356Z 18012KT 34/14 A30 RMK A01 T03400138  RH  030%=      5-min Rain = 0
KBY1 112357Z 19014KT 34/14 A30 RMK A01 T03400138  RH  030%=      5-min Rain = 0
KBY1 112358Z 19011KT 34/14 A30 RMK A01 T03390136  RH  029%=      5-min Rain = 0
KBY1 112359Z 17010G15KT 34/14 A30 RMK A01 T03390138  RH  030%=      5-min Rain = 0
KBY1 120000Z 17015KT 34/14 A30 RMK A01 T03390137  RH  030%=      5-min Rain = 0
KBY1 120001Z 19015KT 34/14 A30 RMK A01 T03400137  RH  029%=      5-min Rain = 0
KBY1 120002Z 19014G19KT 34/14 A30 RMK A01 T03390138  RH  030%=      5-min Rain = 0
KBY1 120003Z 19013KT 34/14 A30 RMK A01 T03390137  RH  030%=      5-min Rain = 0
KBY1 120004Z 19014G19KT 34/14 A30 RMK A01 T03380138  RH  030%=      5-min Rain = 0
KBY1 120005Z 19013KT 34/14 A30 RMK A01 T03380138  RH  030%=      5-min Rain = 0
KBY1 120006Z 18013KT 34/14 A30 RMK A01 T03390138  RH  030%=      5-min Rain = 0
KBY1 120007Z 19014KT 34/14 A30 RMK A01 T03380136  RH  029%=      5-min Rain = 0
KBY1 120008Z 18012KT 34/14 A30 RMK A01 T03370137  RH  030%=      5-min Rain = 0
KBY1 120009Z 18014KT 34/14 A30 RMK A01 T03370138  RH  030%=      5-min Rain = 0
KBY1 120010Z 18012KT 34/14 A30 RMK A01 T03350136  RH  030%=      5-min Rain = 0
KBY1 120011Z 18010KT 33/14 A30 RMK A01 T03320137  RH  031%=      5-min Rain = 0
KBY1 120012Z 16014KT 33/14 A30 RMK A01 T03310137  RH  031%=      5-min Rain = 0
KBY1 120013Z 18012G17KT 33/14 A30 RMK A01 T03310136  RH  031%=      5-min Rain = 0
KBY1 120014Z 17011KT 33/14 A30 RMK A01 T03310135  RH  031%=      5-min Rain = 0
KBY1 120015Z 17010KT 33/14 A30 RMK A01 T03320136  RH  031%=      5-min Rain = 0
KBY1 120016Z 17011KT 33/14 A30 RMK A01 T03330136  RH  030%=      5-min Rain = 0
KBY1 120017Z 18010KT 33/14 A30 RMK A01 T03330136  RH  031%=      5-min Rain = 0
KBY1 120018Z 19011KT 33/14 A30 RMK A01 T03330138  RH  031%=      5-min Rain = 0
KBY1 120019Z 18013KT 33/14 A30 RMK A01 T03320138  RH  031%=      5-min Rain = 0
KBY1 120020Z 18015KT 33/14 A30 RMK A01 T03310136  RH  031%=      5-min Rain = 0
KBY1 120021Z 18011KT 33/14 A30 RMK A01 T03310136  RH  031%=      5-min Rain = 0
KBY1 120022Z 19012KT 33/14 A30 RMK A01 T03310137  RH  031%=      5-min Rain = 0
KBY1 120023Z 18013KT 33/14 A30 RMK A01 T03320136  RH  031%=      5-min Rain = 0
KBY1 120024Z 18012KT 33/14 A30 RMK A01 T03330138  RH  031%=      5-min Rain = 0
KBY1 120025Z 17010G15KT 33/14 A30 RMK A01 T03340138  RH  031%=      5-min Rain = 0
KBY1 120026Z 16011KT 34/14 A30 RMK A01 T03350140  RH  031%=      5-min Rain = 0
KBY1 120027Z 17008KT 34/14 A30 RMK A01 T03350140  RH  031%=      5-min Rain = 0
KBY1 120028Z 16009KT 34/14 A30 RMK A01 T03360141  RH  031%=      5-min Rain = 0
KBY1 120029Z 17012KT 34/14 A30 RMK A01 T03370141  RH  031%=      5-min Rain = 0
KBY1 120030Z 17013KT 34/14 A30 RMK A01 T03370139  RH  030%=      5-min Rain = 0
KBY1 120031Z 17008KT 34/14 A30 RMK A01 T03360139  RH  030%=      5-min Rain = 0
KBY1 120032Z 16011KT 34/14 A30 RMK A01 T03360141  RH  031%=      5-min Rain = 0
KBY1 120033Z 16011KT 34/14 A30 RMK A01 T03370139  RH  030%=      5-min Rain = 0
KBY1 120034Z 17013G18KT 34/14 A30 RMK A01 T03370139  RH  030%=      5-min Rain = 0
KBY1 120035Z 17012KT 34/14 A30 RMK A01 T03360139  RH  030%=      5-min Rain = 0
KBY1 120036Z 17011KT 34/14 A30 RMK A01 T03360139  RH  031%=      5-min Rain = 0
KBY1 120037Z 16011KT 34/14 A30 RMK A01 T03360140  RH  031%=      5-min Rain = 0
KBY1 120038Z 16012G17KT 34/14 A30 RMK A01 T03350139  RH  031%=      5-min Rain = 0
KBY1 120039Z 16014KT 34/14 A30 RMK A01 T03360137  RH  030%=      5-min Rain = 0
KBY1 120040Z 17011KT 34/14 A30 RMK A01 T03350136  RH  030%=      5-min Rain = 0
KBY1 120041Z 16011KT 34/14 A30 RMK A01 T03350138  RH  030%=      5-min Rain = 0
KBY1 120042Z 16012KT 34/14 A30 RMK A01 T03350137  RH  030%=      5-min Rain = 0
KBY1 120043Z 16010KT 34/14 A30 RMK A01 T03350139  RH  031%=      5-min Rain = 0
KBY1 120044Z 16011KT 33/14 A30 RMK A01 T03340139  RH  031%=      5-min Rain = 0
KBY1 120045Z 17013KT 33/14 A30 RMK A01 T03330139  RH  031%=      5-min Rain = 0
KBY1 120046Z 16010G15KT 33/14 A30 RMK A01 T03310140  RH  031%=      5-min Rain = 0
KBY1 120047Z 16011G18KT 33/14 A30 RMK A01 T03310141  RH  032%=      5-min Rain = 0
KBY1 120048Z 15015KT 33/14 A30 RMK A01 T03300140  RH  032%=      5-min Rain = 0
KBY1 120049Z 15013KT 33/14 A30 RMK A01 T03310139  RH  032%=      5-min Rain = 0
KBY1 120050Z 15014G19KT 33/14 A30 RMK A01 T03300140  RH  032%=      5-min Rain = 0
KBY1 120051Z 16014KT 33/14 A30 RMK A01 T03300141  RH  032%=      5-min Rain = 0
KBY1 120052Z 17013KT 33/14 A30 RMK A01 T03290142  RH  032%=      5-min Rain = 0
KBY1 120053Z 16012KT 33/14 A30 RMK A01 T03290141  RH  032%=      5-min Rain = 0
KBY1 120054Z 16012KT 33/14 A30 RMK A01 T03280142  RH  032%=      5-min Rain = 0
KBY1 120055Z 16013KT 33/14 A30 RMK A01 T03280142  RH  033%=      5-min Rain = 0
KBY1 120056Z 17015KT 33/14 A30 RMK A01 T03270142  RH  033%=      5-min Rain = 0
KBY1 120057Z 16011G16KT 33/14 A30 RMK A01 T03270141  RH  033%=      5-min Rain = 0
KBY1 120058Z 16010KT 33/14 A30 RMK A01 T03260143  RH  033%=      5-min Rain = 0
KBY1 120059Z 16010KT 33/14 A30 RMK A01 T03260143  RH  033%=      5-min Rain = 0
KBY1 120100Z 15011G16KT 33/14 A30 RMK A01 T03260143  RH  033%=      5-min Rain = 0
KBY1 120101Z 15012G17KT 33/14 A30 RMK A01 T03250142  RH  033%=      5-min Rain = 0
KBY1 120102Z 15013G18KT 33/14 A30 RMK A01 T03250141  RH  033%=      5-min Rain = 0
KBY1 120103Z 15015G20KT 32/14 A30 RMK A01 T03240140  RH  033%=      5-min Rain = 0
KBY1 120104Z 16012KT 32/14 A30 RMK A01 T03240141  RH  033%=      5-min Rain = 0
KBY1 120105Z 16010KT 32/14 A30 RMK A01 T03230141  RH  033%=      5-min Rain = 0
KBY1 120106Z 16012G20KT 32/14 A30 RMK A01 T03230142  RH  033%=      5-min Rain = 0
KBY1 120107Z 16015KT 32/14 A30 RMK A01 T03230141  RH  033%=      5-min Rain = 0
KBY1 120108Z 15014KT 32/14 A30 RMK A01 T03220140  RH  033%=      5-min Rain = 0
KBY1 120109Z 16011KT 32/14 A30 RMK A01 T03220140  RH  033%=      5-min Rain = 0
KBY1 120110Z 16010KT 32/14 A30 RMK A01 T03220141  RH  033%=      5-min Rain = 0
KBY1 120111Z 15010KT 32/14 A30 RMK A01 T03220141  RH  034%=      5-min Rain = 0
KBY1 120112Z 16011G16KT 32/14 A30 RMK A01 T03210141  RH  033%=      5-min Rain = 0
KBY1 120113Z 16011KT 32/14 A30 RMK A01 T03210140  RH  033%=      5-min Rain = 0
KBY1 120114Z 17012KT 32/14 A30 RMK A01 T03210140  RH  033%=      5-min Rain = 0
KBY1 120115Z 16012KT 32/14 A30 RMK A01 T03210140  RH  033%=      5-min Rain = 0
KBY1 120116Z 16013KT 32/14 A30 RMK A01 T03210140  RH  033%=      5-min Rain = 0
KBY1 120117Z 15010KT 32/14 A30 RMK A01 T03210140  RH  033%=      5-min Rain = 0
KBY1 120118Z 16009KT 32/14 A30 RMK A01 T03220141  RH  034%=      5-min Rain = 0
KBY1 120119Z 16011KT 32/14 A3001 RMK A01 T03210141  RH  034%=      5-min Rain = 0
KBY1 120120Z 16010KT 32/14 A3001 RMK A01 T03210142  RH  034%=      5-min Rain = 0
KBY1 120121Z 16013KT 32/14 A3001 RMK A01 T03200142  RH  034%=      5-min Rain = 0
KBY1 120122Z 17013KT 32/14 A3001 RMK A01 T03190142  RH  034%=      5-min Rain = 0
KBY1 120123Z 17011G16KT 32/14 A3001 RMK A01 T03190142  RH  034%=      5-min Rain = 0
KBY1 120124Z 17011KT 32/14 A3001 RMK A01 T03180142  RH  035%=      5-min Rain = 0
KBY1 120125Z 16010KT 32/14 A3001 RMK A01 T03170142  RH  035%=      5-min Rain = 0
KBY1 120126Z 15010KT 32/14 A3001 RMK A01 T03160143  RH  035%=      5-min Rain = 0
KBY1 120127Z 17015G20KT 32/14 A3001 RMK A01 T03160142  RH  035%=      5-min Rain = 0
KBY1 120128Z 15013G19KT 32/14 A3001 RMK A01 T03160142  RH  035%=      5-min Rain = 0
KBY1 120129Z 16012KT 32/14 A3001 RMK A01 T03160142  RH  035%=      5-min Rain = 0
KBY1 120130Z 17013G19KT 32/14 A3001 RMK A01 T03150142  RH  035%=      5-min Rain = 0
KBY1 120131Z 16014KT 31/14 A3001 RMK A01 T03140141  RH  035%=      5-min Rain = 0
KBY1 120132Z 16011KT 31/14 A3001 RMK A01 T03140141  RH  035%=      5-min Rain = 0
KBY1 120133Z 17010KT 31/14 A3001 RMK A01 T03140142  RH  035%=      5-min Rain = 0
KBY1 120134Z 17011KT 31/14 A3001 RMK A01 T03140143  RH  035%=      5-min Rain = 0
KBY1 120135Z 16011G17KT 31/14 A3001 RMK A01 T03140143  RH  035%=      5-min Rain = 0
KBY1 120136Z 16014G20KT 31/14 A3001 RMK A01 T03130143  RH  036%=      5-min Rain = 0
KBY1 120137Z 16010KT 31/14 A3001 RMK A01 T03130143  RH  036%=      5-min Rain = 0
KBY1 120138Z 16009KT 31/14 A3001 RMK A01 T03130144  RH  036%=      5-min Rain = 0
KBY1 120139Z 17012KT 31/14 A3001 RMK A01 T03120144  RH  036%=      5-min Rain = 0
KBY1 120140Z 16011KT 31/14 A3001 RMK A01 T03120144  RH  036%=      5-min Rain = 0
KBY1 120141Z 16012KT 31/14 A3001 RMK A01 T03120144  RH  036%=      5-min Rain = 0
KBY1 120142Z 16010KT 31/15 A3001 RMK A01 T03120145  RH  036%=      5-min Rain = 0
KBY1 120143Z 17011KT 31/14 A3001 RMK A01 T03120144  RH  036%=      5-min Rain = 0
KBY1 120144Z 16009KT 31/14 A3001 RMK A01 T03110144  RH  036%=      5-min Rain = 0
KBY1 120145Z 17010KT 31/14 A3001 RMK A01 T03110144  RH  036%=      5-min Rain = 0
KBY1 120146Z 16011KT 31/15 A3001 RMK A01 T03110145  RH  036%=      5-min Rain = 0
KBY1 120147Z 16010KT 31/14 A3001 RMK A01 T03110144  RH  036%=      5-min Rain = 0
KBY1 120148Z 16009KT 31/14 A3001 RMK A01 T03110144  RH  036%=      5-min Rain = 0
KBY1 120149Z 16009KT 31/14 A3001 RMK A01 T03110144  RH  036%=      5-min Rain = 0
KBY1 120150Z 16010KT 31/14 A3001 RMK A01 T03100144  RH  036%=      5-min Rain = 0
KBY1 120151Z 15010KT 31/14 A3001 RMK A01 T03110144  RH  036%=      5-min Rain = 0
KBY1 120152Z 16009KT 31/14 A3001 RMK A01 T03100143  RH  036%=      5-min Rain = 0
KBY1 120153Z 15007KT 31/14 A3002 RMK A01 T03110144  RH  036%=      5-min Rain = 0
KBY1 120154Z 16009KT 31/14 A3002 RMK A01 T03100144  RH  036%=      5-min Rain = 0
KBY1 120155Z 16008KT 31/14 A3002 RMK A01 T03100143  RH  036%=      5-min Rain = 0
KBY1 120156Z 17008KT 31/14 A3002 RMK A01 T03090143  RH  036%=      5-min Rain = 0
KBY1 120157Z 16007KT 31/14 A3002 RMK A01 T03090143  RH  036%=      5-min Rain = 0
KBY1 120158Z 16007KT 31/14 A3002 RMK A01 T03090143  RH  036%=      5-min Rain = 0
KBY1 120159Z 16007KT 31/14 A3002 RMK A01 T03090143  RH  036%=      5-min Rain = 0
KBY1 120200Z 16007KT 31/14 A3002 RMK A01 T03080143  RH  037%=      5-min Rain = 0
KBY1 120201Z 16007KT 31/14 A3002 RMK A01 T03080143  RH  037%=      5-min Rain = 0
KBY1 120202Z 17006KT 31/14 A3002 RMK A01 T03080143  RH  037%=      5-min Rain = 0
KBY1 120203Z 17009KT 31/14 A3002 RMK A01 T03080143  RH  037%=      5-min Rain = 0
KBY1 120204Z 16007KT 31/14 A3002 RMK A01 T03080142  RH  037%=      5-min Rain = 0
KBY1 120205Z 16008KT 31/14 A3002 RMK A01 T03080142  RH  037%=      5-min Rain = 0
KBY1 120206Z 17010KT 31/14 A3002 RMK A01 T03080142  RH  037%=      5-min Rain = 0
KBY1 120207Z 16008KT 31/14 A3002 RMK A01 T03080141  RH  036%=      5-min Rain = 0
KBY1 120208Z 17007KT 31/14 A3002 RMK A01 T03080142  RH  036%=      5-min Rain = 0
KBY1 120209Z 17007KT 31/14 A3002 RMK A01 T03080142  RH  036%=      5-min Rain = 0
KBY1 120210Z 17006KT 31/14 A3002 RMK A01 T03070142  RH  036%=      5-min Rain = 0
KBY1 120211Z 17008KT 31/14 A3002 RMK A01 T03070142  RH  037%=      5-min Rain = 0
KBY1 120212Z 17007KT 31/14 A3002 RMK A01 T03070142  RH  037%=      5-min Rain = 0
KBY1 120213Z 18008KT 31/14 A3002 RMK A01 T03060142  RH  037%=      5-min Rain = 0
KBY1 120214Z 17006KT 31/14 A3002 RMK A01 T03060141  RH  037%=      5-min Rain = 0
KBY1 120215Z 18007KT 31/14 A3002 RMK A01 T03060141  RH  037%=      5-min Rain = 0
KBY1 120216Z 17011KT 31/14 A3002 RMK A01 T03060140  RH  036%=      5-min Rain = 0
KBY1 120217Z 18012KT 31/14 A3002 RMK A01 T03050138  RH  036%=      5-min Rain = 0
KBY1 120218Z 17011KT 31/14 A3002 RMK A01 T03060138  RH  036%=      5-min Rain = 0
KBY1 120219Z 18010KT 31/14 A3002 RMK A01 T03070138  RH  036%=      5-min Rain = 0
KBY1 120220Z 18009KT 31/14 A3002 RMK A01 T03070138  RH  036%=      5-min Rain = 0
KBY1 120221Z 17010KT 31/14 A3002 RMK A01 T03060138  RH  036%=      5-min Rain = 0
KBY1 120222Z 18009KT 31/14 A3002 RMK A01 T03070138  RH  036%=      5-min Rain = 0
KBY1 120223Z 18008G13KT 31/14 A3002 RMK A01 T03070139  RH  036%=      5-min Rain = 0
KBY1 120224Z 18010KT 31/14 A3002 RMK A01 T03060138  RH  036%=      5-min Rain = 0
KBY1 120225Z 17009KT 31/14 A3002 RMK A01 T03060138  RH  036%=      5-min Rain = 0
KBY1 120226Z 18010KT 31/14 A3002 RMK A01 T03050138  RH  036%=      5-min Rain = 0
KBY1 120227Z 18008KT 31/14 A3002 RMK A01 T03050138  RH  036%=      5-min Rain = 0
KBY1 120228Z 18009KT 31/14 A3002 RMK A01 T03050138  RH  036%=      5-min Rain = 0
KBY1 120229Z 18010G17KT 30/14 A3002 RMK A01 T03040138  RH  036%=      5-min Rain = 0
KBY1 120230Z 18007KT 30/14 A3002 RMK A01 T03040138  RH  036%=      5-min Rain = 0
KBY1 120231Z 18008KT 30/14 A3002 RMK A01 T03040138  RH  036%=      5-min Rain = 0
KBY1 120232Z 18013G18KT 30/14 A3003 RMK A01 T03030138  RH  037%=      5-min Rain = 0
KBY1 120233Z 18008KT 30/14 A3003 RMK A01 T03040138  RH  036%=      5-min Rain = 0
KBY1 120234Z 18009KT 30/14 A3003 RMK A01 T03040138  RH  036%=      5-min Rain = 0
KBY1 120235Z 19008KT 30/14 A3003 RMK A01 T03030138  RH  037%=      5-min Rain = 0
KBY1 120236Z 19008KT 30/14 A3003 RMK A01 T03030138  RH  037%=      5-min Rain = 0
KBY1 120237Z 19009KT 30/14 A3003 RMK A01 T03030139  RH  037%=      5-min Rain = 0
KBY1 120238Z 18007KT 30/14 A3003 RMK A01 T03030139  RH  037%=      5-min Rain = 0
KBY1 120239Z 18007KT 30/14 A3003 RMK A01 T03020139  RH  037%=      5-min Rain = 0
KBY1 120240Z 18008KT 30/14 A3003 RMK A01 T03020139  RH  037%=      5-min Rain = 0
KBY1 120241Z 18008KT 30/14 A3003 RMK A01 T03020139  RH  037%=      5-min Rain = 0
KBY1 120242Z 18008KT 30/14 A3003 RMK A01 T03020139  RH  037%=      5-min Rain = 0
KBY1 120243Z 18006KT 30/14 A3003 RMK A01 T03020139  RH  037%=      5-min Rain = 0
KBY1 120244Z 19008KT 30/14 A3003 RMK A01 T03020139  RH  037%=      5-min Rain = 0
KBY1 120245Z 19007KT 30/14 A3003 RMK A01 T03020139  RH  037%=      5-min Rain = 0
KBY1 120246Z 19008KT 30/14 A3003 RMK A01 T03010139  RH  037%=      5-min Rain = 0
KBY1 120247Z 19008KT 30/14 A3004 RMK A01 T03010139  RH  037%=      5-min Rain = 0
KBY1 120248Z 18007KT 30/14 A3004 RMK A01 T03010140  RH  037%=      5-min Rain = 0
KBY1 120249Z 18007KT 30/14 A3004 RMK A01 T03010139  RH  037%=      5-min Rain = 0
KBY1 120250Z 19007KT 30/14 A3004 RMK A01 T03010139  RH  037%=      5-min Rain = 0
KBY1 120251Z 19007KT 30/14 A3004 RMK A01 T03010140  RH  037%=      5-min Rain = 0
KBY1 120252Z 19008KT 30/14 A3004 RMK A01 T03010140  RH  037%=      5-min Rain = 0
KBY1 120253Z 20006KT 30/14 A3004 RMK A01 T03000139  RH  037%=      5-min Rain = 0
KBY1 120254Z 21007KT 30/14 A3004 RMK A01 T03010140  RH  037%=      5-min Rain = 0
KBY1 120255Z 22008KT 30/14 A3004 RMK A01 T03000139  RH  037%=      5-min Rain = 0
KBY1 120256Z 22009KT 30/14 A3005 RMK A01 T03000140  RH  037%=      5-min Rain = 0
KBY1 120257Z 22009KT 30/14 A3005 RMK A01 T03000140  RH  037%=      5-min Rain = 0
KBY1 120258Z 23009KT 30/14 A3005 RMK A01 T03010140  RH  037%=      5-min Rain = 0
KBY1 120259Z 23007KT 30/14 A3005 RMK A01 T03010140  RH  037%=      5-min Rain = 0
KBY1 120300Z 24008KT 30/14 A3005 RMK A01 T03010140  RH  037%=      5-min Rain = 0
KBY1 120301Z 25009KT 30/14 A3005 RMK A01 T03010141  RH  038%=      5-min Rain = 0
KBY1 120302Z 24011KT 30/14 A3005 RMK A01 T03020142  RH  038%=      5-min Rain = 0
KBY1 120303Z 25010KT 30/14 A3005 RMK A01 T03010143  RH  038%=      5-min Rain = 0
KBY1 120304Z 25007KT 30/14 A3005 RMK A01 T03000143  RH  038%=      5-min Rain = 0
KBY1 120305Z 25006KT 30/14 A3005 RMK A01 T02990143  RH  039%=      5-min Rain = 0
KBY1 120306Z 26006KT 30/14 A3005 RMK A01 T02980143  RH  039%=      5-min Rain = 0
KBY1 120307Z 26007KT 30/14 A3005 RMK A01 T02970143  RH  039%=      5-min Rain = 0
KBY1 120308Z 26008KT 30/14 A3005 RMK A01 T02970143  RH  039%=      5-min Rain = 0
KBY1 120309Z 27009KT 30/14 A3005 RMK A01 T02960142  RH  039%=      5-min Rain = 0
KBY1 120310Z 26009KT 30/14 A3005 RMK A01 T02960143  RH  039%=      5-min Rain = 0
KBY1 120311Z 27009KT 30/14 A3005 RMK A01 T02950142  RH  039%=      5-min Rain = 0
KBY1 120312Z 26009KT 30/14 A3005 RMK A01 T02950142  RH  039%=      5-min Rain = 0
KBY1 120313Z 27008KT 29/14 A3005 RMK A01 T02930141  RH  039%=      5-min Rain = 0
KBY1 120314Z 27005KT 29/14 A3005 RMK A01 T02910141  RH  040%=      5-min Rain = 0
KBY1 120315Z 28007G12KT 29/14 A3006 RMK A01 T02890140  RH  040%=      5-min Rain = 0
KBY1 120316Z 29006KT 29/14 A3006 RMK A01 T02880140  RH  040%=      5-min Rain = 0
KBY1 120317Z 28006KT 29/14 A3006 RMK A01 T02860139  RH  041%=      5-min Rain = 0
KBY1 120318Z 29005KT 29/14 A3006 RMK A01 T02850139  RH  041%=      5-min Rain = 0
KBY1 120319Z 29007KT 28/14 A3006 RMK A01 T02840139  RH  041%=      5-min Rain = 0
KBY1 120320Z 29010KT 28/14 A3006 RMK A01 T02830139  RH  041%=      5-min Rain = 0
KBY1 120321Z 29009KT 28/14 A3006 RMK A01 T02820139  RH  041%=      5-min Rain = 0
KBY1 120322Z 29007KT 28/14 A3006 RMK A01 T02820140  RH  042%=      5-min Rain = 0
KBY1 120323Z 28008KT 28/14 A3006 RMK A01 T02820140  RH  042%=      5-min Rain = 0
KBY1 120324Z 27009KT 28/14 A3006 RMK A01 T02810140  RH  042%=      5-min Rain = 0
KBY1 120325Z 27008KT 28/14 A3006 RMK A01 T02810140  RH  042%=      5-min Rain = 0
KBY1 120326Z 27007KT 28/14 A3006 RMK A01 T02800141  RH  043%=      5-min Rain = 0
KBY1 120327Z 26007KT 28/14 A3006 RMK A01 T02780141  RH  043%=      5-min Rain = 0
KBY1 120328Z 28005KT 28/14 A3006 RMK A01 T02780141  RH  043%=      5-min Rain = 0
KBY1 120329Z 27005KT 28/14 A3006 RMK A01 T02770141  RH  043%=      5-min Rain = 0
KBY1 120330Z 26006KT 28/14 A3007 RMK A01 T02770141  RH  043%=      5-min Rain = 0
KBY1 120331Z 27006KT 28/14 A3007 RMK A01 T02770141  RH  043%=      5-min Rain = 0
KBY1 120332Z 27006KT 28/14 A3007 RMK A01 T02760141  RH  044%=      5-min Rain = 0
KBY1 120333Z 27006KT 28/14 A3007 RMK A01 T02760141  RH  044%=      5-min Rain = 0
KBY1 120334Z 27006KT 28/14 A3007 RMK A01 T02750141  RH  044%=      5-min Rain = 0
KBY1 120335Z 26006KT 28/14 A3007 RMK A01 T02750141  RH  044%=      5-min Rain = 0
KBY1 120336Z 25006KT 28/14 A3007 RMK A01 T02750142  RH  044%=      5-min Rain = 0
KBY1 120337Z 26005KT 27/14 A3007 RMK A01 T02740142  RH  044%=      5-min Rain = 0
KBY1 120338Z 27005KT 27/14 A3007 RMK A01 T02740142  RH  044%=      5-min Rain = 0
KBY1 120339Z 27004KT 27/14 A3007 RMK A01 T02730142  RH  044%=      5-min Rain = 0
KBY1 120340Z 28003KT 27/14 A3007 RMK A01 T02730142  RH  045%=      5-min Rain = 0
KBY1 120341Z 27004KT 27/14 A3008 RMK A01 T02730142  RH  045%=      5-min Rain = 0
KBY1 120342Z 27004KT 27/14 A3008 RMK A01 T02730142  RH  045%=      5-min Rain = 0
KBY1 120343Z 27003KT 27/14 A3008 RMK A01 T02730142  RH  045%=      5-min Rain = 0
KBY1 120344Z 27004KT 27/14 A3008 RMK A01 T02730142  RH  045%=      5-min Rain = 0
KBY1 120345Z 27003KT 27/14 A3008 RMK A01 T02730142  RH  045%=      5-min Rain = 0
KBY1 120346Z 27003KT 27/14 A3008 RMK A01 T02730143  RH  045%=      5-min Rain = 0
KBY1 120347Z 27004KT 27/14 A3008 RMK A01 T02730143  RH  045%=      5-min Rain = 0
KBY1 120348Z 27004KT 27/14 A3008 RMK A01 T02720143  RH  045%=      5-min Rain = 0
KBY1 120349Z 28004KT 27/14 A3008 RMK A01 T02720143  RH  045%=      5-min Rain = 0
KBY1 120350Z 28004KT 27/14 A3008 RMK A01 T02720143  RH  045%=      5-min Rain = 0
KBY1 120351Z 29005KT 27/14 A3008 RMK A01 T02720142  RH  045%=      5-min Rain = 0
KBY1 120352Z 28005KT 27/14 A3008 RMK A01 T02720143  RH  045%=      5-min Rain = 0
KBY1 120353Z 28005KT 27/14 A3008 RMK A01 T02720143  RH  045%=      5-min Rain = 0
KBY1 120354Z 28004KT 27/14 A3008 RMK A01 T02720143  RH  045%=      5-min Rain = 0
KBY1 120355Z 29004KT 27/14 A3008 RMK A01 T02720143  RH  045%=      5-min Rain = 0
KBY1 120356Z 29005KT 27/14 A3008 RMK A01 T02720143  RH  045%=      5-min Rain = 0
KBY1 120357Z 29005KT 27/14 A3008 RMK A01 T02720143  RH  045%=      5-min Rain = 0
KBY1 120358Z 28004KT 27/14 A3008 RMK A01 T02720143  RH  045%=      5-min Rain = 0
KBY1 120359Z 27003KT 27/14 A3008 RMK A01 T02720143  RH  045%=      5-min Rain = 0
KBY1 120400Z 28002KT 27/14 A3008 RMK A01 T02720143  RH  045%=      5-min Rain = 0
KBY1 120401Z 28002KT 27/14 A3008 RMK A01 T02720143  RH  045%=      5-min Rain = 0
KBY1 120402Z 25002KT 27/14 A3008 RMK A01 T02720143  RH  045%=      5-min Rain = 0
KBY1 120403Z 23002KT 27/14 A3008 RMK A01 T02720143  RH  045%=      5-min Rain = 0
KBY1 120404Z 20002KT 27/14 A3008 RMK A01 T02720144  RH  046%=      5-min Rain = 0
KBY1 120405Z 21002KT 27/15 A3008 RMK A01 T02710145  RH  046%=      5-min Rain = 0
KBY1 120406Z 20002KT 27/15 A3008 RMK A01 T02700145  RH  046%=      5-min Rain = 0
KBY1 120407Z 20002KT 27/15 A3008 RMK A01 T02700145  RH  046%=      5-min Rain = 0
KBY1 120408Z 19002KT 27/15 A3008 RMK A01 T02690145  RH  046%=      5-min Rain = 0
KBY1 120409Z 20001KT 27/15 A3008 RMK A01 T02690145  RH  047%=      5-min Rain = 0
KBY1 120410Z 21001KT 27/15 A3008 RMK A01 T02680146  RH  047%=      5-min Rain = 0
KBY1 120411Z 21000KT 27/15 A3008 RMK A01 T02680146  RH  047%=      5-min Rain = 0
KBY1 120412Z 21000KT 27/15 A3008 RMK A01 T02680146  RH  047%=      5-min Rain = 0
KBY1 120413Z 21001KT 27/15 A3008 RMK A01 T02680146  RH  047%=      5-min Rain = 0
KBY1 120414Z 22000KT 27/15 A3008 RMK A01 T02680147  RH  047%=      5-min Rain = 0
KBY1 120415Z 00000KT 27/15 A3008 RMK A01 T02670147  RH  048%=      5-min Rain = 0
KBY1 120416Z 00000KT 27/15 A3008 RMK A01 T02670147  RH  048%=      5-min Rain = 0
KBY1 120417Z 00000KT 27/15 A3008 RMK A01 T02670146  RH  047%=      5-min Rain = 0
KBY1 120418Z 00000KT 27/15 A3008 RMK A01 T02670147  RH  048%=      5-min Rain = 0
KBY1 120419Z 14001KT 27/15 A3009 RMK A01 T02670147  RH  048%=      5-min Rain = 0
KBY1 120420Z 14002KT 27/15 A3009 RMK A01 T02670148  RH  048%=      5-min Rain = 0
KBY1 120421Z 15003KT 27/15 A3009 RMK A01 T02660149  RH  049%=      5-min Rain = 0
KBY1 120422Z 16003KT 27/15 A3009 RMK A01 T02660150  RH  049%=      5-min Rain = 0
KBY1 120423Z 15003KT 27/15 A3009 RMK A01 T02650149  RH  049%=      5-min Rain = 0
KBY1 120424Z 15003KT 26/15 A3009 RMK A01 T02640149  RH  049%=      5-min Rain = 0
KBY1 120425Z 14002KT 26/15 A3009 RMK A01 T02630149  RH  049%=      5-min Rain = 0
KBY1 120426Z 16005KT 26/15 A3009 RMK A01 T02630149  RH  049%=      5-min Rain = 0
KBY1 120427Z 16007KT 26/15 A3009 RMK A01 T02620149  RH  050%=      5-min Rain = 0
KBY1 120428Z 16006KT 26/15 A3009 RMK A01 T02610148  RH  050%=      5-min Rain = 0
KBY1 120429Z 16006KT 26/15 A3009 RMK A01 T02600148  RH  050%=      5-min Rain = 0
KBY1 120430Z 15006KT 26/15 A3009 RMK A01 T02600147  RH  050%=      5-min Rain = 0
KBY1 120431Z 15005KT 26/15 A3009 RMK A01 T02600146  RH  049%=      5-min Rain = 0
KBY1 120432Z 19004KT 26/15 A3009 RMK A01 T02610147  RH  049%=      5-min Rain = 0
KBY1 120433Z 16004KT 26/15 A3009 RMK A01 T02610147  RH  049%=      5-min Rain = 0
KBY1 120434Z 16008KT 26/15 A3009 RMK A01 T02610145  RH  049%=      5-min Rain = 0
KBY1 120435Z 19012KT 26/15 A3009 RMK A01 T02640145  RH  048%=      5-min Rain = 0
KBY1 120436Z 18011G17KT 27/15 A3009 RMK A01 T02680147  RH  047%=      5-min Rain = 0
KBY1 120437Z 18014KT 27/15 A3009 RMK A01 T02700148  RH  047%=      5-min Rain = 0
KBY1 120438Z 18010KT 27/15 A3009 RMK A01 T02710148  RH  047%=      5-min Rain = 0
KBY1 120439Z 17012KT 27/15 A3009 RMK A01 T02720149  RH  047%=      5-min Rain = 0
KBY1 120440Z 17013KT 27/15 A3009 RMK A01 T02720151  RH  048%=      5-min Rain = 0
KBY1 120441Z 17013G19KT 27/15 A3009 RMK A01 T02710152  RH  048%=      5-min Rain = 0
KBY1 120442Z 17012KT 27/15 A3009 RMK A01 T02700154  RH  049%=      5-min Rain = 0
KBY1 120443Z 18012KT 27/16 A3009 RMK A01 T02690155  RH  050%=      5-min Rain = 0
KBY1 120444Z 18012KT 27/16 A3009 RMK A01 T02680156  RH  050%=      5-min Rain = 0
KBY1 120445Z 17012KT 27/16 A3009 RMK A01 T02660156  RH  051%=      5-min Rain = 0
KBY1 120446Z 17010G15KT 27/16 A3009 RMK A01 T02660157  RH  051%=      5-min Rain = 0
KBY1 120447Z 17012KT 27/16 A3009 RMK A01 T02650158  RH  052%=      5-min Rain = 0
KBY1 120448Z 17010KT 26/16 A3009 RMK A01 T02640159  RH  052%=      5-min Rain = 0
KBY1 120449Z 17009KT 26/16 A3009 RMK A01 T02630159  RH  053%=      5-min Rain = 0
KBY1 120450Z 18010KT 26/16 A3009 RMK A01 T02620159  RH  053%=      5-min Rain = 0
KBY1 120451Z 18011KT 26/16 A3009 RMK A01 T02610159  RH  054%=      5-min Rain = 0
KBY1 120452Z 19011KT 26/16 A3009 RMK A01 T02600159  RH  054%=      5-min Rain = 0
KBY1 120453Z 19013KT 26/16 A301 RMK A01 T02590156  RH  053%=      5-min Rain = 0
KBY1 120454Z 19010KT 26/16 A301 RMK A01 T02590156  RH  053%=      5-min Rain = 0
KBY1 120455Z 18010KT 26/16 A301 RMK A01 T02590156  RH  053%=      5-min Rain = 0
KBY1 120456Z 19010KT 26/16 A301 RMK A01 T02590155  RH  052%=      5-min Rain = 0
KBY1 120457Z 18008KT 26/15 A301 RMK A01 T02590154  RH  052%=      5-min Rain = 0
KBY1 120458Z 17008KT 26/16 A301 RMK A01 T02590155  RH  053%=      5-min Rain = 0
KBY1 120459Z 17006KT 26/16 A301 RMK A01 T02580157  RH  054%=      5-min Rain = 0

Page generated in 0.1267 seconds.